<?xml version="1.0" encoding="UTF-8" standalone="no" ?>
<gpx xmlns="http://www.topografix.com/GPX/1/1" xmlns:xsi="http://www.w3.org/2001/XMLSchema-instance" xsi:schemaLocation="http://www.topografix.com/GPX/1/1 http://www.topografix.com/GPX/1/1/gpx.xsd" version="1.1" creator="VisuGPX - https://www.visugpx.com">
  <metadata>
    <name>Raid 21 PAPh</name>
    <desc><![CDATA[brouillon pour Raid ]]></desc>
  </metadata>
  <trk>
    <name><![CDATA[D'Espère à Luzech et Saint-Médard]]></name>
    <trkseg>
      <trkpt lat="44.51128" lon="1.37674">
        <ele>145.93634</ele>
        <time>2020-06-07T07:35:43Z</time>
      </trkpt>
      <trkpt lat="44.51124" lon="1.37659">
        <ele>145.826355</ele>
        <time>2020-06-07T07:36:06Z</time>
      </trkpt>
      <trkpt lat="44.51107" lon="1.3764">
        <ele>144.960754</ele>
        <time>2020-06-07T07:36:19Z</time>
      </trkpt>
      <trkpt lat="44.51091" lon="1.37633">
        <ele>143.914993</ele>
        <time>2020-06-07T07:36:30Z</time>
      </trkpt>
      <trkpt lat="44.51061" lon="1.37633">
        <ele>142.272415</ele>
        <time>2020-06-07T07:36:49Z</time>
      </trkpt>
      <trkpt lat="44.50985" lon="1.37634">
        <ele>139.873749</ele>
        <time>2020-06-07T07:37:08Z</time>
      </trkpt>
      <trkpt lat="44.50921" lon="1.37638">
        <ele>138.059998</ele>
        <time>2020-06-07T07:37:22Z</time>
      </trkpt>
      <trkpt lat="44.5087" lon="1.37667">
        <ele>135.804993</ele>
        <time>2020-06-07T07:37:31Z</time>
      </trkpt>
      <trkpt lat="44.50818" lon="1.37662">
        <ele>133.968201</ele>
        <time>2020-06-07T07:37:39Z</time>
      </trkpt>
      <trkpt lat="44.50778" lon="1.37644">
        <ele>132.701324</ele>
        <time>2020-06-07T07:37:52Z</time>
      </trkpt>
      <trkpt lat="44.50683" lon="1.37524">
        <ele>134.209366</ele>
        <time>2020-06-07T07:38:31Z</time>
      </trkpt>
      <trkpt lat="44.50598" lon="1.37461">
        <ele>135.852341</ele>
        <time>2020-06-07T07:38:58Z</time>
      </trkpt>
      <trkpt lat="44.50537" lon="1.37432">
        <ele>138.279999</ele>
        <time>2020-06-07T07:39:17Z</time>
      </trkpt>
      <trkpt lat="44.50508" lon="1.37417">
        <ele>139.534988</ele>
        <time>2020-06-07T07:39:29Z</time>
      </trkpt>
      <trkpt lat="44.5051" lon="1.37399">
        <ele>141.458176</ele>
        <time>2020-06-07T07:39:38Z</time>
      </trkpt>
      <trkpt lat="44.50512" lon="1.37388">
        <ele>142.255005</ele>
        <time>2020-06-07T07:45:20Z</time>
      </trkpt>
      <trkpt lat="44.50563" lon="1.37254">
        <ele>146.649994</ele>
        <time>2020-06-07T07:46:01Z</time>
      </trkpt>
      <trkpt lat="44.50594" lon="1.37176">
        <ele>147.360001</ele>
        <time>2020-06-07T07:46:20Z</time>
      </trkpt>
      <trkpt lat="44.50639" lon="1.37059">
        <ele>148.665619</ele>
        <time>2020-06-07T07:46:46Z</time>
      </trkpt>
      <trkpt lat="44.5061" lon="1.37026">
        <ele>148.556244</ele>
        <time>2020-06-07T07:46:55Z</time>
      </trkpt>
      <trkpt lat="44.50505" lon="1.36957">
        <ele>147.388901</ele>
        <time>2020-06-07T07:47:17Z</time>
      </trkpt>
      <trkpt lat="44.50426" lon="1.36866">
        <ele>145.248749</ele>
        <time>2020-06-07T07:47:37Z</time>
      </trkpt>
      <trkpt lat="44.5038" lon="1.36786">
        <ele>142.341843</ele>
        <time>2020-06-07T07:47:51Z</time>
      </trkpt>
      <trkpt lat="44.50334" lon="1.36703">
        <ele>137.897125</ele>
        <time>2020-06-07T07:48:02Z</time>
      </trkpt>
      <trkpt lat="44.50378" lon="1.36546">
        <ele>138.517624</ele>
        <time>2020-06-07T07:48:23Z</time>
      </trkpt>
      <trkpt lat="44.50406" lon="1.36471">
        <ele>137.954758</ele>
        <time>2020-06-07T07:48:34Z</time>
      </trkpt>
      <trkpt lat="44.50426" lon="1.36462">
        <ele>138.932312</ele>
        <time>2020-06-07T07:48:42Z</time>
      </trkpt>
      <trkpt lat="44.50428" lon="1.36491">
        <ele>141.193512</ele>
        <time>2020-06-07T07:48:55Z</time>
      </trkpt>
      <trkpt lat="44.50436" lon="1.36554">
        <ele>145.027496</ele>
        <time>2020-06-07T07:49:23Z</time>
      </trkpt>
      <trkpt lat="44.50466" lon="1.36584">
        <ele>149.149689</ele>
        <time>2020-06-07T07:49:49Z</time>
      </trkpt>
      <trkpt lat="44.50478" lon="1.36618">
        <ele>150.906403</ele>
        <time>2020-06-07T07:50:07Z</time>
      </trkpt>
      <trkpt lat="44.50494" lon="1.36629">
        <ele>153.512497</ele>
        <time>2020-06-07T07:50:17Z</time>
      </trkpt>
      <trkpt lat="44.50511" lon="1.36637">
        <ele>156.205002</ele>
        <time>2020-06-07T07:50:28Z</time>
      </trkpt>
      <trkpt lat="44.50525" lon="1.36629">
        <ele>158.223755</ele>
        <time>2020-06-07T07:50:39Z</time>
      </trkpt>
      <trkpt lat="44.50537" lon="1.36638">
        <ele>160.095627</ele>
        <time>2020-06-07T07:50:51Z</time>
      </trkpt>
      <trkpt lat="44.50565" lon="1.36647">
        <ele>163.370209</ele>
        <time>2020-06-07T07:51:13Z</time>
      </trkpt>
      <trkpt lat="44.50578" lon="1.36638">
        <ele>165.555878</ele>
        <time>2020-06-07T07:51:22Z</time>
      </trkpt>
      <trkpt lat="44.50595" lon="1.36628">
        <ele>167.554642</ele>
        <time>2020-06-07T07:51:36Z</time>
      </trkpt>
      <trkpt lat="44.50611" lon="1.36635">
        <ele>169.894592</ele>
        <time>2020-06-07T07:51:51Z</time>
      </trkpt>
      <trkpt lat="44.50635" lon="1.36638">
        <ele>173.993195</ele>
        <time>2020-06-07T07:52:10Z</time>
      </trkpt>
      <trkpt lat="44.5065" lon="1.36638">
        <ele>176.580841</ele>
        <time>2020-06-07T07:52:18Z</time>
      </trkpt>
      <trkpt lat="44.50666" lon="1.36644">
        <ele>179.023651</ele>
        <time>2020-06-07T07:52:30Z</time>
      </trkpt>
      <trkpt lat="44.50682" lon="1.36659">
        <ele>180.288376</ele>
        <time>2020-06-07T07:52:40Z</time>
      </trkpt>
      <trkpt lat="44.50701" lon="1.36659">
        <ele>182.663406</ele>
        <time>2020-06-07T07:52:53Z</time>
      </trkpt>
      <trkpt lat="44.50728" lon="1.36638">
        <ele>185.306244</ele>
        <time>2020-06-07T07:53:09Z</time>
      </trkpt>
      <trkpt lat="44.50738" lon="1.36632">
        <ele>185.628754</ele>
        <time>2020-06-07T07:53:16Z</time>
      </trkpt>
      <trkpt lat="44.50759" lon="1.36638">
        <ele>187.127335</ele>
        <time>2020-06-07T07:53:27Z</time>
      </trkpt>
      <trkpt lat="44.5078" lon="1.36661">
        <ele>188.080566</ele>
        <time>2020-06-07T07:53:40Z</time>
      </trkpt>
      <trkpt lat="44.50819" lon="1.367">
        <ele>191.222183</ele>
        <time>2020-06-07T07:54:06Z</time>
      </trkpt>
      <trkpt lat="44.5085" lon="1.3669">
        <ele>193.079224</ele>
        <time>2020-06-07T07:54:22Z</time>
      </trkpt>
      <trkpt lat="44.50874" lon="1.36688">
        <ele>195.147598</ele>
        <time>2020-06-07T07:54:33Z</time>
      </trkpt>
      <trkpt lat="44.50899" lon="1.36704">
        <ele>198.818115</ele>
        <time>2020-06-07T07:54:45Z</time>
      </trkpt>
      <trkpt lat="44.50936" lon="1.36716">
        <ele>201.738419</ele>
        <time>2020-06-07T07:55:01Z</time>
      </trkpt>
      <trkpt lat="44.50955" lon="1.367">
        <ele>203.249374</ele>
        <time>2020-06-07T07:55:12Z</time>
      </trkpt>
      <trkpt lat="44.50976" lon="1.36698">
        <ele>204.576706</ele>
        <time>2020-06-07T07:55:23Z</time>
      </trkpt>
      <trkpt lat="44.51024" lon="1.36681">
        <ele>205.812958</ele>
        <time>2020-06-07T07:55:42Z</time>
      </trkpt>
      <trkpt lat="44.51043" lon="1.36684">
        <ele>206.407013</ele>
        <time>2020-06-07T07:55:51Z</time>
      </trkpt>
      <trkpt lat="44.51067" lon="1.36646">
        <ele>207.696732</ele>
        <time>2020-06-07T07:56:09Z</time>
      </trkpt>
      <trkpt lat="44.51089" lon="1.36627">
        <ele>210.325974</ele>
        <time>2020-06-07T07:56:21Z</time>
      </trkpt>
      <trkpt lat="44.5111" lon="1.36607">
        <ele>213.649963</ele>
        <time>2020-06-07T07:56:34Z</time>
      </trkpt>
      <trkpt lat="44.51125" lon="1.3662">
        <ele>214.363373</ele>
        <time>2020-06-07T07:56:42Z</time>
      </trkpt>
      <trkpt lat="44.51145" lon="1.36624">
        <ele>215.563034</ele>
        <time>2020-06-07T07:56:53Z</time>
      </trkpt>
      <trkpt lat="44.51182" lon="1.36604">
        <ele>218.463821</ele>
        <time>2020-06-07T07:57:09Z</time>
      </trkpt>
      <trkpt lat="44.51217" lon="1.36583">
        <ele>220.065002</ele>
        <time>2020-06-07T07:57:25Z</time>
      </trkpt>
      <trkpt lat="44.5122" lon="1.36572">
        <ele>221.275345</ele>
        <time>2020-06-07T07:58:25Z</time>
      </trkpt>
      <trkpt lat="44.51224" lon="1.3653">
        <ele>225.308243</ele>
        <time>2020-06-07T07:58:41Z</time>
      </trkpt>
      <trkpt lat="44.51239" lon="1.36513">
        <ele>226.744812</ele>
        <time>2020-06-07T07:58:51Z</time>
      </trkpt>
      <trkpt lat="44.51247" lon="1.36492">
        <ele>228.999832</ele>
        <time>2020-06-07T07:59:01Z</time>
      </trkpt>
      <trkpt lat="44.51248" lon="1.36452">
        <ele>233.446243</ele>
        <time>2020-06-07T07:59:17Z</time>
      </trkpt>
      <trkpt lat="44.51254" lon="1.3641">
        <ele>236.515518</ele>
        <time>2020-06-07T07:59:33Z</time>
      </trkpt>
      <trkpt lat="44.51254" lon="1.36366">
        <ele>237.911667</ele>
        <time>2020-06-07T07:59:52Z</time>
      </trkpt>
      <trkpt lat="44.51291" lon="1.36306">
        <ele>240.445679</ele>
        <time>2020-06-07T08:00:15Z</time>
      </trkpt>
      <trkpt lat="44.51301" lon="1.36248">
        <ele>236.453537</ele>
        <time>2020-06-07T08:00:27Z</time>
      </trkpt>
      <trkpt lat="44.51318" lon="1.36193">
        <ele>232.928619</ele>
        <time>2020-06-07T08:00:49Z</time>
      </trkpt>
      <trkpt lat="44.51357" lon="1.3614">
        <ele>232.342178</ele>
        <time>2020-06-07T08:01:05Z</time>
      </trkpt>
      <trkpt lat="44.51359" lon="1.36105">
        <ele>231.008118</ele>
        <time>2020-06-07T08:01:11Z</time>
      </trkpt>
      <trkpt lat="44.51359" lon="1.36044">
        <ele>231.738617</ele>
        <time>2020-06-07T08:01:26Z</time>
      </trkpt>
      <trkpt lat="44.51345" lon="1.36001">
        <ele>235.176163</ele>
        <time>2020-06-07T08:01:39Z</time>
      </trkpt>
      <trkpt lat="44.51323" lon="1.35972">
        <ele>237.08902</ele>
        <time>2020-06-07T08:01:53Z</time>
      </trkpt>
      <trkpt lat="44.51308" lon="1.35946">
        <ele>239.009354</ele>
        <time>2020-06-07T08:02:06Z</time>
      </trkpt>
      <trkpt lat="44.51303" lon="1.35905">
        <ele>241.751587</ele>
        <time>2020-06-07T08:02:21Z</time>
      </trkpt>
      <trkpt lat="44.51307" lon="1.3586">
        <ele>244.116226</ele>
        <time>2020-06-07T08:02:36Z</time>
      </trkpt>
      <trkpt lat="44.51306" lon="1.35787">
        <ele>245.558746</ele>
        <time>2020-06-07T08:02:57Z</time>
      </trkpt>
      <trkpt lat="44.51313" lon="1.3574">
        <ele>247.512497</ele>
        <time>2020-06-07T08:03:12Z</time>
      </trkpt>
      <trkpt lat="44.51316" lon="1.35684">
        <ele>249.130173</ele>
        <time>2020-06-07T08:03:28Z</time>
      </trkpt>
      <trkpt lat="44.51333" lon="1.35628">
        <ele>251.205002</ele>
        <time>2020-06-07T08:03:47Z</time>
      </trkpt>
      <trkpt lat="44.51327" lon="1.35602">
        <ele>250.186066</ele>
        <time>2020-06-07T08:03:56Z</time>
      </trkpt>
      <trkpt lat="44.51324" lon="1.35568">
        <ele>248.875687</ele>
        <time>2020-06-07T08:04:04Z</time>
      </trkpt>
      <trkpt lat="44.51356" lon="1.35525">
        <ele>250.043747</ele>
        <time>2020-06-07T08:04:16Z</time>
      </trkpt>
      <trkpt lat="44.51371" lon="1.3545">
        <ele>249.967514</ele>
        <time>2020-06-07T08:04:31Z</time>
      </trkpt>
      <trkpt lat="44.51353" lon="1.35401">
        <ele>250.265152</ele>
        <time>2020-06-07T08:04:44Z</time>
      </trkpt>
      <trkpt lat="44.51346" lon="1.35379">
        <ele>250.723389</ele>
        <time>2020-06-07T08:04:53Z</time>
      </trkpt>
      <trkpt lat="44.51332" lon="1.35366">
        <ele>251.063889</ele>
        <time>2020-06-07T08:05:17Z</time>
      </trkpt>
      <trkpt lat="44.51314" lon="1.3534">
        <ele>249.824951</ele>
        <time>2020-06-07T08:06:26Z</time>
      </trkpt>
      <trkpt lat="44.51317" lon="1.35292">
        <ele>250.238297</ele>
        <time>2020-06-07T08:06:36Z</time>
      </trkpt>
      <trkpt lat="44.5132" lon="1.35174">
        <ele>253.244675</ele>
        <time>2020-06-07T08:07:07Z</time>
      </trkpt>
      <trkpt lat="44.51318" lon="1.35131">
        <ele>257.132782</ele>
        <time>2020-06-07T08:07:20Z</time>
      </trkpt>
      <trkpt lat="44.51319" lon="1.351">
        <ele>260.412323</ele>
        <time>2020-06-07T08:07:32Z</time>
      </trkpt>
      <trkpt lat="44.51315" lon="1.35081">
        <ele>261.560272</ele>
        <time>2020-06-07T08:07:40Z</time>
      </trkpt>
      <trkpt lat="44.51302" lon="1.35046">
        <ele>263.852783</ele>
        <time>2020-06-07T08:07:54Z</time>
      </trkpt>
      <trkpt lat="44.51297" lon="1.35018">
        <ele>265.912994</ele>
        <time>2020-06-07T08:08:07Z</time>
      </trkpt>
      <trkpt lat="44.51296" lon="1.34992">
        <ele>267.975983</ele>
        <time>2020-06-07T08:08:19Z</time>
      </trkpt>
      <trkpt lat="44.51286" lon="1.34956">
        <ele>267.156158</ele>
        <time>2020-06-07T08:08:34Z</time>
      </trkpt>
      <trkpt lat="44.51287" lon="1.34942">
        <ele>267.404083</ele>
        <time>2020-06-07T08:08:43Z</time>
      </trkpt>
      <trkpt lat="44.51293" lon="1.34929">
        <ele>268.314331</ele>
        <time>2020-06-07T08:08:50Z</time>
      </trkpt>
      <trkpt lat="44.51301" lon="1.34912">
        <ele>270.141296</ele>
        <time>2020-06-07T08:09:01Z</time>
      </trkpt>
      <trkpt lat="44.51307" lon="1.34886">
        <ele>272.050476</ele>
        <time>2020-06-07T08:09:16Z</time>
      </trkpt>
      <trkpt lat="44.51314" lon="1.34849">
        <ele>274.831268</ele>
        <time>2020-06-07T08:09:32Z</time>
      </trkpt>
      <trkpt lat="44.51323" lon="1.34806">
        <ele>279.251312</ele>
        <time>2020-06-07T08:09:53Z</time>
      </trkpt>
      <trkpt lat="44.51329" lon="1.34759">
        <ele>280.619995</ele>
        <time>2020-06-07T08:10:20Z</time>
      </trkpt>
      <trkpt lat="44.5132" lon="1.34747">
        <ele>278.790009</ele>
        <time>2020-06-07T08:13:27Z</time>
      </trkpt>
      <trkpt lat="44.51297" lon="1.34732">
        <ele>272.36615</ele>
        <time>2020-06-07T08:13:35Z</time>
      </trkpt>
      <trkpt lat="44.51267" lon="1.34715">
        <ele>267.887146</ele>
        <time>2020-06-07T08:13:46Z</time>
      </trkpt>
      <trkpt lat="44.51234" lon="1.3471">
        <ele>264.894196</ele>
        <time>2020-06-07T08:14:13Z</time>
      </trkpt>
      <trkpt lat="44.51177" lon="1.34729">
        <ele>259.339081</ele>
        <time>2020-06-07T08:14:30Z</time>
      </trkpt>
      <trkpt lat="44.51173" lon="1.34729">
        <ele>259.61618</ele>
        <time>2020-06-07T08:14:39Z</time>
      </trkpt>
      <trkpt lat="44.51136" lon="1.34745">
        <ele>259.236389</ele>
        <time>2020-06-07T08:14:57Z</time>
      </trkpt>
      <trkpt lat="44.51104" lon="1.34763">
        <ele>260.324005</ele>
        <time>2020-06-07T08:15:08Z</time>
      </trkpt>
      <trkpt lat="44.51035" lon="1.34839">
        <ele>259.860504</ele>
        <time>2020-06-07T08:15:31Z</time>
      </trkpt>
      <trkpt lat="44.50978" lon="1.34878">
        <ele>262.170746</ele>
        <time>2020-06-07T08:15:53Z</time>
      </trkpt>
      <trkpt lat="44.50957" lon="1.34874">
        <ele>264.80249</ele>
        <time>2020-06-07T08:16:05Z</time>
      </trkpt>
      <trkpt lat="44.50937" lon="1.34866">
        <ele>266.708832</ele>
        <time>2020-06-07T08:16:17Z</time>
      </trkpt>
      <trkpt lat="44.50923" lon="1.34858">
        <ele>268.647217</ele>
        <time>2020-06-07T08:16:29Z</time>
      </trkpt>
      <trkpt lat="44.50919" lon="1.34852">
        <ele>269.875397</ele>
        <time>2020-06-07T08:16:36Z</time>
      </trkpt>
      <trkpt lat="44.50919" lon="1.34846">
        <ele>271.172241</ele>
        <time>2020-06-07T08:16:48Z</time>
      </trkpt>
      <trkpt lat="44.50905" lon="1.34844">
        <ele>272.10321</ele>
        <time>2020-06-07T08:16:57Z</time>
      </trkpt>
      <trkpt lat="44.50888" lon="1.34836">
        <ele>274.169067</ele>
        <time>2020-06-07T08:17:09Z</time>
      </trkpt>
      <trkpt lat="44.5089" lon="1.34822">
        <ele>276.34491</ele>
        <time>2020-06-07T08:17:18Z</time>
      </trkpt>
      <trkpt lat="44.50875" lon="1.3481">
        <ele>278.101288</ele>
        <time>2020-06-07T08:17:31Z</time>
      </trkpt>
      <trkpt lat="44.50864" lon="1.34784">
        <ele>280.060547</ele>
        <time>2020-06-07T08:17:44Z</time>
      </trkpt>
      <trkpt lat="44.50852" lon="1.34791">
        <ele>279.506439</ele>
        <time>2020-06-07T08:17:51Z</time>
      </trkpt>
      <trkpt lat="44.50855" lon="1.3476">
        <ele>281.80069</ele>
        <time>2020-06-07T08:18:07Z</time>
      </trkpt>
      <trkpt lat="44.50838" lon="1.34742">
        <ele>282.564392</ele>
        <time>2020-06-07T08:18:30Z</time>
      </trkpt>
      <trkpt lat="44.50834" lon="1.34724">
        <ele>283.351868</ele>
        <time>2020-06-07T08:18:36Z</time>
      </trkpt>
      <trkpt lat="44.50822" lon="1.34689">
        <ele>284.787567</ele>
        <time>2020-06-07T08:18:48Z</time>
      </trkpt>
      <trkpt lat="44.5074" lon="1.34708">
        <ele>282.408905</ele>
        <time>2020-06-07T08:19:59Z</time>
      </trkpt>
      <trkpt lat="44.50683" lon="1.34748">
        <ele>281.475616</ele>
        <time>2020-06-07T08:20:14Z</time>
      </trkpt>
      <trkpt lat="44.50645" lon="1.34781">
        <ele>278.100006</ele>
        <time>2020-06-07T08:20:26Z</time>
      </trkpt>
      <trkpt lat="44.50625" lon="1.34801">
        <ele>275.957489</ele>
        <time>2020-06-07T08:20:37Z</time>
      </trkpt>
      <trkpt lat="44.50596" lon="1.34816">
        <ele>273.825653</ele>
        <time>2020-06-07T08:20:45Z</time>
      </trkpt>
      <trkpt lat="44.50556" lon="1.3482">
        <ele>272.541595</ele>
        <time>2020-06-07T08:20:53Z</time>
      </trkpt>
      <trkpt lat="44.50513" lon="1.34827">
        <ele>271.877594</ele>
        <time>2020-06-07T08:21:02Z</time>
      </trkpt>
      <trkpt lat="44.50456" lon="1.34835">
        <ele>270.335693</ele>
        <time>2020-06-07T08:21:12Z</time>
      </trkpt>
      <trkpt lat="44.50399" lon="1.34837">
        <ele>270.71875</ele>
        <time>2020-06-07T08:21:24Z</time>
      </trkpt>
      <trkpt lat="44.50362" lon="1.34841">
        <ele>270.553406</ele>
        <time>2020-06-07T08:21:32Z</time>
      </trkpt>
      <trkpt lat="44.50347" lon="1.34855">
        <ele>270.517578</ele>
        <time>2020-06-07T08:21:38Z</time>
      </trkpt>
      <trkpt lat="44.50319" lon="1.34881">
        <ele>270.355835</ele>
        <time>2020-06-07T08:21:52Z</time>
      </trkpt>
      <trkpt lat="44.50274" lon="1.34904">
        <ele>266.140015</ele>
        <time>2020-06-07T08:22:05Z</time>
      </trkpt>
      <trkpt lat="44.50279" lon="1.34951">
        <ele>263.530609</ele>
        <time>2020-06-07T08:22:12Z</time>
      </trkpt>
      <trkpt lat="44.5029" lon="1.34984">
        <ele>260.953552</ele>
        <time>2020-06-07T08:22:17Z</time>
      </trkpt>
      <trkpt lat="44.50271" lon="1.35029">
        <ele>253.100006</ele>
        <time>2020-06-07T08:22:23Z</time>
      </trkpt>
      <trkpt lat="44.50259" lon="1.35045">
        <ele>249.256256</ele>
        <time>2020-06-07T08:22:27Z</time>
      </trkpt>
      <trkpt lat="44.50243" lon="1.35056">
        <ele>245.954376</ele>
        <time>2020-06-07T08:22:31Z</time>
      </trkpt>
      <trkpt lat="44.50213" lon="1.35057">
        <ele>244.033371</ele>
        <time>2020-06-07T08:22:37Z</time>
      </trkpt>
      <trkpt lat="44.5019" lon="1.35059">
        <ele>242.599991</ele>
        <time>2020-06-07T08:22:43Z</time>
      </trkpt>
      <trkpt lat="44.50154" lon="1.35051">
        <ele>241.895264</ele>
        <time>2020-06-07T08:22:51Z</time>
      </trkpt>
      <trkpt lat="44.50153" lon="1.35038">
        <ele>242.801956</ele>
        <time>2020-06-07T08:23:41Z</time>
      </trkpt>
      <trkpt lat="44.50105" lon="1.35055">
        <ele>238.495773</ele>
        <time>2020-06-07T08:23:53Z</time>
      </trkpt>
      <trkpt lat="44.50086" lon="1.35046">
        <ele>237.950531</ele>
        <time>2020-06-07T08:24:00Z</time>
      </trkpt>
      <trkpt lat="44.50086" lon="1.35053">
        <ele>237.829651</ele>
        <time>2020-06-07T08:24:20Z</time>
      </trkpt>
      <trkpt lat="44.50072" lon="1.35087">
        <ele>236.065125</ele>
        <time>2020-06-07T08:24:27Z</time>
      </trkpt>
      <trkpt lat="44.5004" lon="1.35105">
        <ele>235.358932</ele>
        <time>2020-06-07T08:24:33Z</time>
      </trkpt>
      <trkpt lat="44.5" lon="1.35102">
        <ele>237.507172</ele>
        <time>2020-06-07T08:24:51Z</time>
      </trkpt>
      <trkpt lat="44.49965" lon="1.35114">
        <ele>238.22403</ele>
        <time>2020-06-07T08:25:06Z</time>
      </trkpt>
      <trkpt lat="44.49927" lon="1.3514">
        <ele>237.925507</ele>
        <time>2020-06-07T08:25:19Z</time>
      </trkpt>
      <trkpt lat="44.4988" lon="1.35146">
        <ele>236.587036</ele>
        <time>2020-06-07T08:25:36Z</time>
      </trkpt>
      <trkpt lat="44.49842" lon="1.35209">
        <ele>235.019379</ele>
        <time>2020-06-07T08:25:49Z</time>
      </trkpt>
      <trkpt lat="44.4982" lon="1.35259">
        <ele>233.945175</ele>
        <time>2020-06-07T08:25:55Z</time>
      </trkpt>
      <trkpt lat="44.49803" lon="1.35329">
        <ele>231.831818</ele>
        <time>2020-06-07T08:26:03Z</time>
      </trkpt>
      <trkpt lat="44.49816" lon="1.35367">
        <ele>228.201904</ele>
        <time>2020-06-07T08:26:08Z</time>
      </trkpt>
      <trkpt lat="44.49831" lon="1.35396">
        <ele>224.590057</ele>
        <time>2020-06-07T08:26:12Z</time>
      </trkpt>
      <trkpt lat="44.49848" lon="1.35442">
        <ele>216.989273</ele>
        <time>2020-06-07T08:26:17Z</time>
      </trkpt>
      <trkpt lat="44.49854" lon="1.35467">
        <ele>213.322998</ele>
        <time>2020-06-07T08:26:21Z</time>
      </trkpt>
      <trkpt lat="44.49843" lon="1.3548">
        <ele>214.616013</ele>
        <time>2020-06-07T08:26:25Z</time>
      </trkpt>
      <trkpt lat="44.49839" lon="1.35491">
        <ele>214.298737</ele>
        <time>2020-06-07T08:43:25Z</time>
      </trkpt>
      <trkpt lat="44.49833" lon="1.35549">
        <ele>208.964111</ele>
        <time>2020-06-07T08:43:33Z</time>
      </trkpt>
      <trkpt lat="44.4984" lon="1.35597">
        <ele>201.480392</ele>
        <time>2020-06-07T08:43:39Z</time>
      </trkpt>
      <trkpt lat="44.49848" lon="1.35607">
        <ele>199.39325</ele>
        <time>2020-06-07T08:43:45Z</time>
      </trkpt>
      <trkpt lat="44.49838" lon="1.35596">
        <ele>201.632477</ele>
        <time>2020-06-07T08:44:08Z</time>
      </trkpt>
      <trkpt lat="44.49818" lon="1.35608">
        <ele>199.461914</ele>
        <time>2020-06-07T08:44:20Z</time>
      </trkpt>
      <trkpt lat="44.49776" lon="1.35583">
        <ele>204.132248</ele>
        <time>2020-06-07T08:44:37Z</time>
      </trkpt>
      <trkpt lat="44.49764" lon="1.3556">
        <ele>206.600403</ele>
        <time>2020-06-07T08:44:49Z</time>
      </trkpt>
      <trkpt lat="44.49748" lon="1.35543">
        <ele>207.323822</ele>
        <time>2020-06-07T08:44:57Z</time>
      </trkpt>
      <trkpt lat="44.49736" lon="1.35522">
        <ele>208.318985</ele>
        <time>2020-06-07T08:45:06Z</time>
      </trkpt>
      <trkpt lat="44.49677" lon="1.35443">
        <ele>209.740005</ele>
        <time>2020-06-07T08:45:40Z</time>
      </trkpt>
      <trkpt lat="44.4965" lon="1.35364">
        <ele>210.225006</ele>
        <time>2020-06-07T08:45:59Z</time>
      </trkpt>
      <trkpt lat="44.49637" lon="1.35208">
        <ele>210.505249</ele>
        <time>2020-06-07T08:46:30Z</time>
      </trkpt>
      <trkpt lat="44.49636" lon="1.35183">
        <ele>210.033646</ele>
        <time>2020-06-07T08:46:42Z</time>
      </trkpt>
      <trkpt lat="44.49639" lon="1.35177">
        <ele>210.598145</ele>
        <time>2020-06-07T08:47:07Z</time>
      </trkpt>
      <trkpt lat="44.49668" lon="1.35169">
        <ele>215.083694</ele>
        <time>2020-06-07T08:47:32Z</time>
      </trkpt>
      <trkpt lat="44.49679" lon="1.35168">
        <ele>216.665359</ele>
        <time>2020-06-07T08:47:42Z</time>
      </trkpt>
      <trkpt lat="44.49705" lon="1.35174">
        <ele>220.727478</ele>
        <time>2020-06-07T08:48:07Z</time>
      </trkpt>
      <trkpt lat="44.49727" lon="1.35173">
        <ele>223.232498</ele>
        <time>2020-06-07T08:48:29Z</time>
      </trkpt>
      <trkpt lat="44.49758" lon="1.35167">
        <ele>226.578049</ele>
        <time>2020-06-07T08:49:01Z</time>
      </trkpt>
      <trkpt lat="44.49778" lon="1.35159">
        <ele>228.990662</ele>
        <time>2020-06-07T08:49:22Z</time>
      </trkpt>
      <trkpt lat="44.49791" lon="1.35157">
        <ele>230.614456</ele>
        <time>2020-06-07T08:49:34Z</time>
      </trkpt>
      <trkpt lat="44.49805" lon="1.35154">
        <ele>231.746872</ele>
        <time>2020-06-07T08:49:46Z</time>
      </trkpt>
      <trkpt lat="44.49827" lon="1.35145">
        <ele>233.127502</ele>
        <time>2020-06-07T08:50:57Z</time>
      </trkpt>
      <trkpt lat="44.49909" lon="1.35101">
        <ele>237.226288</ele>
        <time>2020-06-07T08:51:34Z</time>
      </trkpt>
      <trkpt lat="44.49981" lon="1.35078">
        <ele>239.708221</ele>
        <time>2020-06-07T08:51:55Z</time>
      </trkpt>
      <trkpt lat="44.50053" lon="1.35042">
        <ele>237.115067</ele>
        <time>2020-06-07T08:52:09Z</time>
      </trkpt>
      <trkpt lat="44.50089" lon="1.35031">
        <ele>238.316925</ele>
        <time>2020-06-07T08:52:18Z</time>
      </trkpt>
      <trkpt lat="44.50109" lon="1.35014">
        <ele>239.972351</ele>
        <time>2020-06-07T08:52:33Z</time>
      </trkpt>
      <trkpt lat="44.5013" lon="1.35006">
        <ele>241.936829</ele>
        <time>2020-06-07T08:52:45Z</time>
      </trkpt>
      <trkpt lat="44.50154" lon="1.34995">
        <ele>244.643982</ele>
        <time>2020-06-07T08:53:03Z</time>
      </trkpt>
      <trkpt lat="44.50174" lon="1.34984">
        <ele>247.269485</ele>
        <time>2020-06-07T08:53:17Z</time>
      </trkpt>
      <trkpt lat="44.50181" lon="1.34972">
        <ele>248.726379</ele>
        <time>2020-06-07T08:53:26Z</time>
      </trkpt>
      <trkpt lat="44.50196" lon="1.34955">
        <ele>251.970108</ele>
        <time>2020-06-07T08:53:43Z</time>
      </trkpt>
      <trkpt lat="44.50237" lon="1.34926">
        <ele>260.320679</ele>
        <time>2020-06-07T08:54:22Z</time>
      </trkpt>
      <trkpt lat="44.50264" lon="1.34901">
        <ele>265.3125</ele>
        <time>2020-06-07T08:54:44Z</time>
      </trkpt>
      <trkpt lat="44.50276" lon="1.3488">
        <ele>267.744141</ele>
        <time>2020-06-07T08:54:58Z</time>
      </trkpt>
      <trkpt lat="44.50273" lon="1.3488">
        <ele>267.350739</ele>
        <time>2020-06-07T08:55:16Z</time>
      </trkpt>
      <trkpt lat="44.50231" lon="1.34825">
        <ele>263.137756</ele>
        <time>2020-06-07T08:55:32Z</time>
      </trkpt>
      <trkpt lat="44.50221" lon="1.34785">
        <ele>259.895325</ele>
        <time>2020-06-07T08:55:38Z</time>
      </trkpt>
      <trkpt lat="44.50191" lon="1.34734">
        <ele>252.989227</ele>
        <time>2020-06-07T08:55:46Z</time>
      </trkpt>
      <trkpt lat="44.50173" lon="1.34685">
        <ele>249.486191</ele>
        <time>2020-06-07T08:55:53Z</time>
      </trkpt>
      <trkpt lat="44.50156" lon="1.34646">
        <ele>250.255066</ele>
        <time>2020-06-07T08:55:59Z</time>
      </trkpt>
      <trkpt lat="44.50137" lon="1.34615">
        <ele>250.300873</ele>
        <time>2020-06-07T08:56:04Z</time>
      </trkpt>
      <trkpt lat="44.50121" lon="1.34577">
        <ele>250.263901</ele>
        <time>2020-06-07T08:56:10Z</time>
      </trkpt>
      <trkpt lat="44.501" lon="1.34544">
        <ele>249.510696</ele>
        <time>2020-06-07T08:56:17Z</time>
      </trkpt>
      <trkpt lat="44.50068" lon="1.3446">
        <ele>247.594727</ele>
        <time>2020-06-07T08:56:36Z</time>
      </trkpt>
      <trkpt lat="44.50047" lon="1.3442">
        <ele>247.861496</ele>
        <time>2020-06-07T08:57:49Z</time>
      </trkpt>
      <trkpt lat="44.49998" lon="1.34371">
        <ele>248.179184</ele>
        <time>2020-06-07T08:58:06Z</time>
      </trkpt>
      <trkpt lat="44.4995" lon="1.34294">
        <ele>248.687592</ele>
        <time>2020-06-07T08:58:25Z</time>
      </trkpt>
      <trkpt lat="44.49898" lon="1.34196">
        <ele>243.845901</ele>
        <time>2020-06-07T08:58:43Z</time>
      </trkpt>
      <trkpt lat="44.49895" lon="1.34162">
        <ele>241.312363</ele>
        <time>2020-06-07T08:58:47Z</time>
      </trkpt>
      <trkpt lat="44.499" lon="1.3413">
        <ele>239.534698</ele>
        <time>2020-06-07T08:58:54Z</time>
      </trkpt>
      <trkpt lat="44.49921" lon="1.34105">
        <ele>237.873825</ele>
        <time>2020-06-07T08:59:22Z</time>
      </trkpt>
      <trkpt lat="44.49963" lon="1.34066">
        <ele>239.502792</ele>
        <time>2020-06-07T08:59:35Z</time>
      </trkpt>
      <trkpt lat="44.49968" lon="1.34019">
        <ele>235.850876</ele>
        <time>2020-06-07T08:59:44Z</time>
      </trkpt>
      <trkpt lat="44.49971" lon="1.34007">
        <ele>235.999954</ele>
        <time>2020-06-07T08:59:49Z</time>
      </trkpt>
      <trkpt lat="44.49963" lon="1.33967">
        <ele>234.738922</ele>
        <time>2020-06-07T08:59:58Z</time>
      </trkpt>
      <trkpt lat="44.4995" lon="1.33931">
        <ele>232.638458</ele>
        <time>2020-06-07T09:00:05Z</time>
      </trkpt>
      <trkpt lat="44.49922" lon="1.33882">
        <ele>229.816681</ele>
        <time>2020-06-07T09:00:16Z</time>
      </trkpt>
      <trkpt lat="44.49892" lon="1.33846">
        <ele>223.856247</ele>
        <time>2020-06-07T09:00:24Z</time>
      </trkpt>
      <trkpt lat="44.49858" lon="1.3383">
        <ele>217.798279</ele>
        <time>2020-06-07T09:00:31Z</time>
      </trkpt>
      <trkpt lat="44.49785" lon="1.33789">
        <ele>206.492401</ele>
        <time>2020-06-07T09:00:42Z</time>
      </trkpt>
      <trkpt lat="44.49757" lon="1.33786">
        <ele>204.217499</ele>
        <time>2020-06-07T09:00:46Z</time>
      </trkpt>
      <trkpt lat="44.49731" lon="1.33775">
        <ele>202.461517</ele>
        <time>2020-06-07T09:00:52Z</time>
      </trkpt>
      <trkpt lat="44.49737" lon="1.33752">
        <ele>202.462326</ele>
        <time>2020-06-07T09:00:56Z</time>
      </trkpt>
      <trkpt lat="44.49737" lon="1.33725">
        <ele>199.070068</ele>
        <time>2020-06-07T09:01:01Z</time>
      </trkpt>
      <trkpt lat="44.49633" lon="1.3368">
        <ele>182.820007</ele>
        <time>2020-06-07T09:01:22Z</time>
      </trkpt>
      <trkpt lat="44.49597" lon="1.3367">
        <ele>175.776886</ele>
        <time>2020-06-07T09:01:28Z</time>
      </trkpt>
      <trkpt lat="44.49572" lon="1.33651">
        <ele>168.210632</ele>
        <time>2020-06-07T09:01:33Z</time>
      </trkpt>
      <trkpt lat="44.49551" lon="1.33632">
        <ele>161.095062</ele>
        <time>2020-06-07T09:01:38Z</time>
      </trkpt>
      <trkpt lat="44.49545" lon="1.33628">
        <ele>159.468018</ele>
        <time>2020-06-07T09:01:43Z</time>
      </trkpt>
      <trkpt lat="44.49521" lon="1.33617">
        <ele>154.058258</ele>
        <time>2020-06-07T09:01:56Z</time>
      </trkpt>
      <trkpt lat="44.49498" lon="1.33601">
        <ele>148.79863</ele>
        <time>2020-06-07T09:02:00Z</time>
      </trkpt>
      <trkpt lat="44.49471" lon="1.33572">
        <ele>143.023254</ele>
        <time>2020-06-07T09:02:04Z</time>
      </trkpt>
      <trkpt lat="44.49445" lon="1.33537">
        <ele>136.843948</ele>
        <time>2020-06-07T09:02:09Z</time>
      </trkpt>
      <trkpt lat="44.49446" lon="1.33539">
        <ele>136.998108</ele>
        <time>2020-06-07T09:02:20Z</time>
      </trkpt>
      <trkpt lat="44.4945" lon="1.3354">
        <ele>137.706039</ele>
        <time>2020-06-07T09:02:32Z</time>
      </trkpt>
      <trkpt lat="44.49479" lon="1.33504">
        <ele>136.984772</ele>
        <time>2020-06-07T09:03:12Z</time>
      </trkpt>
      <trkpt lat="44.4952" lon="1.33493">
        <ele>134.137497</ele>
        <time>2020-06-07T09:03:21Z</time>
      </trkpt>
      <trkpt lat="44.49571" lon="1.33487">
        <ele>131.269699</ele>
        <time>2020-06-07T09:03:28Z</time>
      </trkpt>
      <trkpt lat="44.49643" lon="1.33464">
        <ele>127.06028</ele>
        <time>2020-06-07T09:03:37Z</time>
      </trkpt>
      <trkpt lat="44.49678" lon="1.33451">
        <ele>124.248611</ele>
        <time>2020-06-07T09:03:42Z</time>
      </trkpt>
      <trkpt lat="44.49705" lon="1.33443">
        <ele>122.817497</ele>
        <time>2020-06-07T09:03:47Z</time>
      </trkpt>
      <trkpt lat="44.49721" lon="1.33445">
        <ele>123.278122</ele>
        <time>2020-06-07T09:03:52Z</time>
      </trkpt>
      <trkpt lat="44.4975" lon="1.33438">
        <ele>122.081879</ele>
        <time>2020-06-07T09:04:02Z</time>
      </trkpt>
      <trkpt lat="44.49769" lon="1.33383">
        <ele>113.602219</ele>
        <time>2020-06-07T09:04:14Z</time>
      </trkpt>
      <trkpt lat="44.49777" lon="1.33351">
        <ele>120.658287</ele>
        <time>2020-06-07T09:04:25Z</time>
      </trkpt>
      <trkpt lat="44.49824" lon="1.33357">
        <ele>121.631393</ele>
        <time>2020-06-07T09:05:49Z</time>
      </trkpt>
      <trkpt lat="44.49877" lon="1.33369">
        <ele>121.923523</ele>
        <time>2020-06-07T09:06:05Z</time>
      </trkpt>
      <trkpt lat="44.49931" lon="1.33374">
        <ele>124.631973</ele>
        <time>2020-06-07T09:06:21Z</time>
      </trkpt>
      <trkpt lat="44.49995" lon="1.33361">
        <ele>128.809387</ele>
        <time>2020-06-07T09:06:40Z</time>
      </trkpt>
      <trkpt lat="44.50016" lon="1.33365">
        <ele>128.060623</ele>
        <time>2020-06-07T09:06:51Z</time>
      </trkpt>
      <trkpt lat="44.50078" lon="1.33348">
        <ele>128.309372</ele>
        <time>2020-06-07T09:07:08Z</time>
      </trkpt>
      <trkpt lat="44.50129" lon="1.33299">
        <ele>133.980453</ele>
        <time>2020-06-07T09:07:28Z</time>
      </trkpt>
      <trkpt lat="44.50177" lon="1.33239">
        <ele>137.839157</ele>
        <time>2020-06-07T09:07:53Z</time>
      </trkpt>
      <trkpt lat="44.50191" lon="1.33209">
        <ele>138.29071</ele>
        <time>2020-06-07T09:08:04Z</time>
      </trkpt>
      <trkpt lat="44.50224" lon="1.33158">
        <ele>138.362701</ele>
        <time>2020-06-07T09:08:21Z</time>
      </trkpt>
      <trkpt lat="44.50249" lon="1.33117">
        <ele>138.540131</ele>
        <time>2020-06-07T09:08:34Z</time>
      </trkpt>
      <trkpt lat="44.50277" lon="1.3308">
        <ele>138.656143</ele>
        <time>2020-06-07T09:08:47Z</time>
      </trkpt>
      <trkpt lat="44.50311" lon="1.33043">
        <ele>139.756256</ele>
        <time>2020-06-07T09:09:00Z</time>
      </trkpt>
      <trkpt lat="44.50332" lon="1.33004">
        <ele>141.393524</ele>
        <time>2020-06-07T09:09:12Z</time>
      </trkpt>
      <trkpt lat="44.50365" lon="1.32954">
        <ele>144.17984</ele>
        <time>2020-06-07T09:09:29Z</time>
      </trkpt>
      <trkpt lat="44.50387" lon="1.32909">
        <ele>147.581299</ele>
        <time>2020-06-07T09:09:45Z</time>
      </trkpt>
      <trkpt lat="44.50392" lon="1.32891">
        <ele>148.308655</ele>
        <time>2020-06-07T09:09:53Z</time>
      </trkpt>
      <trkpt lat="44.50428" lon="1.32836">
        <ele>152.488541</ele>
        <time>2020-06-07T09:10:10Z</time>
      </trkpt>
      <trkpt lat="44.50448" lon="1.32812">
        <ele>152.133301</ele>
        <time>2020-06-07T09:10:20Z</time>
      </trkpt>
      <trkpt lat="44.50465" lon="1.32793">
        <ele>153.678604</ele>
        <time>2020-06-07T09:10:28Z</time>
      </trkpt>
      <trkpt lat="44.50478" lon="1.3277">
        <ele>154.327271</ele>
        <time>2020-06-07T09:10:36Z</time>
      </trkpt>
      <trkpt lat="44.50528" lon="1.32659">
        <ele>157.570038</ele>
        <time>2020-06-07T09:11:08Z</time>
      </trkpt>
      <trkpt lat="44.50547" lon="1.32631">
        <ele>157.497513</ele>
        <time>2020-06-07T09:11:19Z</time>
      </trkpt>
      <trkpt lat="44.50558" lon="1.32619">
        <ele>158.396545</ele>
        <time>2020-06-07T09:11:29Z</time>
      </trkpt>
      <trkpt lat="44.50577" lon="1.3266">
        <ele>156.215775</ele>
        <time>2020-06-07T09:11:50Z</time>
      </trkpt>
      <trkpt lat="44.50572" lon="1.3265">
        <ele>156.758972</ele>
        <time>2020-06-07T09:12:00Z</time>
      </trkpt>
      <trkpt lat="44.50579" lon="1.3266">
        <ele>156.25769</ele>
        <time>2020-06-07T09:14:06Z</time>
      </trkpt>
      <trkpt lat="44.50588" lon="1.32687">
        <ele>156.38446</ele>
        <time>2020-06-07T09:14:21Z</time>
      </trkpt>
      <trkpt lat="44.50585" lon="1.32699">
        <ele>157.435425</ele>
        <time>2020-06-07T09:14:30Z</time>
      </trkpt>
      <trkpt lat="44.50571" lon="1.3273">
        <ele>159.159042</ele>
        <time>2020-06-07T09:14:45Z</time>
      </trkpt>
      <trkpt lat="44.50561" lon="1.32762">
        <ele>160.1875</ele>
        <time>2020-06-07T09:14:59Z</time>
      </trkpt>
      <trkpt lat="44.50563" lon="1.32771">
        <ele>161.643692</ele>
        <time>2020-06-07T09:15:06Z</time>
      </trkpt>
      <trkpt lat="44.50573" lon="1.32771">
        <ele>163.989944</ele>
        <time>2020-06-07T09:15:13Z</time>
      </trkpt>
      <trkpt lat="44.50591" lon="1.32762">
        <ele>166.658905</ele>
        <time>2020-06-07T09:15:27Z</time>
      </trkpt>
      <trkpt lat="44.50603" lon="1.3276">
        <ele>168.846664</ele>
        <time>2020-06-07T09:15:36Z</time>
      </trkpt>
      <trkpt lat="44.50619" lon="1.32764">
        <ele>173.162979</ele>
        <time>2020-06-07T09:15:57Z</time>
      </trkpt>
      <trkpt lat="44.5063" lon="1.32763">
        <ele>175.10881</ele>
        <time>2020-06-07T09:16:06Z</time>
      </trkpt>
      <trkpt lat="44.5064" lon="1.32766">
        <ele>177.427505</ele>
        <time>2020-06-07T09:16:21Z</time>
      </trkpt>
      <trkpt lat="44.50662" lon="1.32769">
        <ele>181.448593</ele>
        <time>2020-06-07T09:16:37Z</time>
      </trkpt>
      <trkpt lat="44.50678" lon="1.32776">
        <ele>185.657501</ele>
        <time>2020-06-07T09:16:49Z</time>
      </trkpt>
      <trkpt lat="44.50685" lon="1.32781">
        <ele>187.707504</ele>
        <time>2020-06-07T09:17:02Z</time>
      </trkpt>
      <trkpt lat="44.50703" lon="1.32783">
        <ele>189.712494</ele>
        <time>2020-06-07T09:17:17Z</time>
      </trkpt>
      <trkpt lat="44.50717" lon="1.32787">
        <ele>191.779999</ele>
        <time>2020-06-07T09:17:29Z</time>
      </trkpt>
      <trkpt lat="44.50735" lon="1.32789">
        <ele>194.018234</ele>
        <time>2020-06-07T09:17:38Z</time>
      </trkpt>
      <trkpt lat="44.50742" lon="1.32794">
        <ele>196.428375</ele>
        <time>2020-06-07T09:17:50Z</time>
      </trkpt>
      <trkpt lat="44.50758" lon="1.32801">
        <ele>199.96196</ele>
        <time>2020-06-07T09:18:18Z</time>
      </trkpt>
      <trkpt lat="44.50781" lon="1.32805">
        <ele>203.916336</ele>
        <time>2020-06-07T09:18:35Z</time>
      </trkpt>
      <trkpt lat="44.50805" lon="1.32801">
        <ele>205.703583</ele>
        <time>2020-06-07T09:18:46Z</time>
      </trkpt>
      <trkpt lat="44.50823" lon="1.32805">
        <ele>209.726318</ele>
        <time>2020-06-07T09:18:57Z</time>
      </trkpt>
      <trkpt lat="44.50842" lon="1.32807">
        <ele>213.625519</ele>
        <time>2020-06-07T09:19:14Z</time>
      </trkpt>
      <trkpt lat="44.50859" lon="1.32801">
        <ele>215.609146</ele>
        <time>2020-06-07T09:19:28Z</time>
      </trkpt>
      <trkpt lat="44.5088" lon="1.32797">
        <ele>219.827957</ele>
        <time>2020-06-07T09:19:40Z</time>
      </trkpt>
      <trkpt lat="44.50892" lon="1.32788">
        <ele>221.223343</ele>
        <time>2020-06-07T09:19:51Z</time>
      </trkpt>
      <trkpt lat="44.50919" lon="1.3276">
        <ele>221.953842</ele>
        <time>2020-06-07T09:20:15Z</time>
      </trkpt>
      <trkpt lat="44.50934" lon="1.32737">
        <ele>222.826523</ele>
        <time>2020-06-07T09:20:33Z</time>
      </trkpt>
      <trkpt lat="44.50945" lon="1.32728">
        <ele>224.923447</ele>
        <time>2020-06-07T09:20:46Z</time>
      </trkpt>
      <trkpt lat="44.50952" lon="1.32716">
        <ele>225.327103</ele>
        <time>2020-06-07T09:20:57Z</time>
      </trkpt>
      <trkpt lat="44.50955" lon="1.3271">
        <ele>225.450867</ele>
        <time>2020-06-07T09:22:16Z</time>
      </trkpt>
      <trkpt lat="44.50962" lon="1.32671">
        <ele>225.774292</ele>
        <time>2020-06-07T09:22:32Z</time>
      </trkpt>
      <trkpt lat="44.50973" lon="1.32646">
        <ele>229.218933</ele>
        <time>2020-06-07T09:22:45Z</time>
      </trkpt>
      <trkpt lat="44.5098" lon="1.32636">
        <ele>230.646255</ele>
        <time>2020-06-07T09:22:51Z</time>
      </trkpt>
      <trkpt lat="44.50983" lon="1.32624">
        <ele>231.760056</ele>
        <time>2020-06-07T09:22:57Z</time>
      </trkpt>
      <trkpt lat="44.50989" lon="1.32603">
        <ele>234.140579</ele>
        <time>2020-06-07T09:23:09Z</time>
      </trkpt>
      <trkpt lat="44.50988" lon="1.32587">
        <ele>236.638046</ele>
        <time>2020-06-07T09:23:18Z</time>
      </trkpt>
      <trkpt lat="44.50991" lon="1.3257">
        <ele>239.302383</ele>
        <time>2020-06-07T09:23:29Z</time>
      </trkpt>
      <trkpt lat="44.50991" lon="1.3255">
        <ele>242.45488</ele>
        <time>2020-06-07T09:23:39Z</time>
      </trkpt>
      <trkpt lat="44.50965" lon="1.32515">
        <ele>247.217682</ele>
        <time>2020-06-07T09:24:05Z</time>
      </trkpt>
      <trkpt lat="44.50941" lon="1.32486">
        <ele>251.839996</ele>
        <time>2020-06-07T09:24:28Z</time>
      </trkpt>
      <trkpt lat="44.5093" lon="1.3247">
        <ele>254.903122</ele>
        <time>2020-06-07T09:24:39Z</time>
      </trkpt>
      <trkpt lat="44.50919" lon="1.32461">
        <ele>256.52124</ele>
        <time>2020-06-07T09:24:47Z</time>
      </trkpt>
      <trkpt lat="44.50872" lon="1.32445">
        <ele>258.940002</ele>
        <time>2020-06-07T09:25:20Z</time>
      </trkpt>
      <trkpt lat="44.50838" lon="1.32441">
        <ele>259.400635</ele>
        <time>2020-06-07T09:25:36Z</time>
      </trkpt>
      <trkpt lat="44.50796" lon="1.32434">
        <ele>260.828125</ele>
        <time>2020-06-07T09:25:55Z</time>
      </trkpt>
      <trkpt lat="44.5075" lon="1.3243">
        <ele>260.793823</ele>
        <time>2020-06-07T09:26:15Z</time>
      </trkpt>
      <trkpt lat="44.50729" lon="1.32423">
        <ele>261.684387</ele>
        <time>2020-06-07T09:26:26Z</time>
      </trkpt>
      <trkpt lat="44.50698" lon="1.32397">
        <ele>261.965851</ele>
        <time>2020-06-07T09:26:41Z</time>
      </trkpt>
      <trkpt lat="44.50675" lon="1.32371">
        <ele>263.04599</ele>
        <time>2020-06-07T09:26:56Z</time>
      </trkpt>
      <trkpt lat="44.50629" lon="1.32349">
        <ele>257.557098</ele>
        <time>2020-06-07T09:27:05Z</time>
      </trkpt>
      <trkpt lat="44.50592" lon="1.32306">
        <ele>255.587463</ele>
        <time>2020-06-07T09:27:11Z</time>
      </trkpt>
      <trkpt lat="44.5057" lon="1.32226">
        <ele>248.356598</ele>
        <time>2020-06-07T09:27:17Z</time>
      </trkpt>
      <trkpt lat="44.50548" lon="1.32144">
        <ele>246.330261</ele>
        <time>2020-06-07T09:27:23Z</time>
      </trkpt>
      <trkpt lat="44.50535" lon="1.32093">
        <ele>252.7155</ele>
        <time>2020-06-07T09:27:30Z</time>
      </trkpt>
      <trkpt lat="44.50527" lon="1.32081">
        <ele>255.178146</ele>
        <time>2020-06-07T09:27:39Z</time>
      </trkpt>
      <trkpt lat="44.50518" lon="1.32077">
        <ele>256.299011</ele>
        <time>2020-06-07T09:27:47Z</time>
      </trkpt>
      <trkpt lat="44.50459" lon="1.32067">
        <ele>260.114014</ele>
        <time>2020-06-07T09:28:23Z</time>
      </trkpt>
      <trkpt lat="44.50422" lon="1.32073">
        <ele>260.888824</ele>
        <time>2020-06-07T09:28:39Z</time>
      </trkpt>
      <trkpt lat="44.50353" lon="1.32053">
        <ele>265.792084</ele>
        <time>2020-06-07T09:29:04Z</time>
      </trkpt>
      <trkpt lat="44.5033" lon="1.3204">
        <ele>262.884094</ele>
        <time>2020-06-07T09:29:13Z</time>
      </trkpt>
      <trkpt lat="44.50307" lon="1.32059">
        <ele>262.630219</ele>
        <time>2020-06-07T09:29:21Z</time>
      </trkpt>
      <trkpt lat="44.50286" lon="1.32106">
        <ele>252.037979</ele>
        <time>2020-06-07T09:29:44Z</time>
      </trkpt>
      <trkpt lat="44.50285" lon="1.32106">
        <ele>251.556107</ele>
        <time>2020-06-07T09:34:27Z</time>
      </trkpt>
      <trkpt lat="44.50297" lon="1.32094">
        <ele>256.768433</ele>
        <time>2020-06-07T09:34:36Z</time>
      </trkpt>
      <trkpt lat="44.50296" lon="1.31936">
        <ele>248.479996</ele>
        <time>2020-06-07T09:35:15Z</time>
      </trkpt>
      <trkpt lat="44.50305" lon="1.319">
        <ele>257.091431</ele>
        <time>2020-06-07T09:35:30Z</time>
      </trkpt>
      <trkpt lat="44.50306" lon="1.31892">
        <ele>258.23938</ele>
        <time>2020-06-07T09:35:41Z</time>
      </trkpt>
      <trkpt lat="44.50303" lon="1.31874">
        <ele>258.603119</ele>
        <time>2020-06-07T09:36:12Z</time>
      </trkpt>
      <trkpt lat="44.50295" lon="1.3185">
        <ele>254.811249</ele>
        <time>2020-06-07T09:36:20Z</time>
      </trkpt>
      <trkpt lat="44.50296" lon="1.31823">
        <ele>256.457489</ele>
        <time>2020-06-07T09:36:30Z</time>
      </trkpt>
      <trkpt lat="44.50283" lon="1.31754">
        <ele>251.99054</ele>
        <time>2020-06-07T09:36:49Z</time>
      </trkpt>
      <trkpt lat="44.5027" lon="1.3169">
        <ele>249.731384</ele>
        <time>2020-06-07T09:37:02Z</time>
      </trkpt>
      <trkpt lat="44.50259" lon="1.31649">
        <ele>247.029953</ele>
        <time>2020-06-07T09:37:10Z</time>
      </trkpt>
      <trkpt lat="44.50248" lon="1.31616">
        <ele>238.420929</ele>
        <time>2020-06-07T09:37:18Z</time>
      </trkpt>
      <trkpt lat="44.50243" lon="1.31579">
        <ele>236.492355</ele>
        <time>2020-06-07T09:37:24Z</time>
      </trkpt>
      <trkpt lat="44.50238" lon="1.31551">
        <ele>235.060471</ele>
        <time>2020-06-07T09:37:29Z</time>
      </trkpt>
      <trkpt lat="44.50249" lon="1.31505">
        <ele>243.214996</ele>
        <time>2020-06-07T09:37:37Z</time>
      </trkpt>
      <trkpt lat="44.50236" lon="1.3145">
        <ele>242.7453</ele>
        <time>2020-06-07T09:37:42Z</time>
      </trkpt>
      <trkpt lat="44.50229" lon="1.31394">
        <ele>247.497025</ele>
        <time>2020-06-07T09:37:52Z</time>
      </trkpt>
      <trkpt lat="44.50214" lon="1.31372">
        <ele>249.319</ele>
        <time>2020-06-07T09:38:03Z</time>
      </trkpt>
      <trkpt lat="44.50232" lon="1.31337">
        <ele>253.256805</ele>
        <time>2020-06-07T09:38:45Z</time>
      </trkpt>
      <trkpt lat="44.5024" lon="1.31306">
        <ele>256.146576</ele>
        <time>2020-06-07T09:38:56Z</time>
      </trkpt>
      <trkpt lat="44.50239" lon="1.31258">
        <ele>258.145355</ele>
        <time>2020-06-07T09:39:12Z</time>
      </trkpt>
      <trkpt lat="44.50158" lon="1.31154">
        <ele>252.318573</ele>
        <time>2020-06-07T09:39:32Z</time>
      </trkpt>
      <trkpt lat="44.50143" lon="1.31138">
        <ele>251.130905</ele>
        <time>2020-06-07T09:39:39Z</time>
      </trkpt>
      <trkpt lat="44.50104" lon="1.31126">
        <ele>246.753204</ele>
        <time>2020-06-07T09:39:49Z</time>
      </trkpt>
      <trkpt lat="44.50076" lon="1.31111">
        <ele>244.181152</ele>
        <time>2020-06-07T09:39:59Z</time>
      </trkpt>
      <trkpt lat="44.50045" lon="1.31067">
        <ele>241.675797</ele>
        <time>2020-06-07T09:40:10Z</time>
      </trkpt>
      <trkpt lat="44.50019" lon="1.31">
        <ele>246.943344</ele>
        <time>2020-06-07T09:40:29Z</time>
      </trkpt>
      <trkpt lat="44.50002" lon="1.30984">
        <ele>246.563522</ele>
        <time>2020-06-07T09:40:37Z</time>
      </trkpt>
      <trkpt lat="44.49944" lon="1.30952">
        <ele>239.81575</ele>
        <time>2020-06-07T09:40:51Z</time>
      </trkpt>
      <trkpt lat="44.49897" lon="1.30912">
        <ele>238.537033</ele>
        <time>2020-06-07T09:41:07Z</time>
      </trkpt>
      <trkpt lat="44.49871" lon="1.30894">
        <ele>235.406342</ele>
        <time>2020-06-07T09:41:13Z</time>
      </trkpt>
      <trkpt lat="44.49841" lon="1.30858">
        <ele>239.383789</ele>
        <time>2020-06-07T09:41:23Z</time>
      </trkpt>
      <trkpt lat="44.49806" lon="1.30803">
        <ele>243.304214</ele>
        <time>2020-06-07T09:41:42Z</time>
      </trkpt>
      <trkpt lat="44.49797" lon="1.30791">
        <ele>243.080719</ele>
        <time>2020-06-07T09:41:50Z</time>
      </trkpt>
      <trkpt lat="44.49785" lon="1.30778">
        <ele>241.927567</ele>
        <time>2020-06-07T09:42:56Z</time>
      </trkpt>
      <trkpt lat="44.49768" lon="1.30756">
        <ele>243.589844</ele>
        <time>2020-06-07T09:43:23Z</time>
      </trkpt>
      <trkpt lat="44.49755" lon="1.30727">
        <ele>249.165344</ele>
        <time>2020-06-07T09:43:39Z</time>
      </trkpt>
      <trkpt lat="44.49747" lon="1.30713">
        <ele>249.670303</ele>
        <time>2020-06-07T09:43:46Z</time>
      </trkpt>
      <trkpt lat="44.49739" lon="1.30707">
        <ele>248.471695</ele>
        <time>2020-06-07T09:44:06Z</time>
      </trkpt>
      <trkpt lat="44.49727" lon="1.30689">
        <ele>250.423645</ele>
        <time>2020-06-07T09:44:23Z</time>
      </trkpt>
      <trkpt lat="44.49685" lon="1.3067">
        <ele>243.751709</ele>
        <time>2020-06-07T09:44:42Z</time>
      </trkpt>
      <trkpt lat="44.49658" lon="1.30649">
        <ele>244.273224</ele>
        <time>2020-06-07T09:44:50Z</time>
      </trkpt>
      <trkpt lat="44.4963" lon="1.30627">
        <ele>249.391769</ele>
        <time>2020-06-07T09:45:06Z</time>
      </trkpt>
      <trkpt lat="44.49613" lon="1.30625">
        <ele>249.849182</ele>
        <time>2020-06-07T09:45:18Z</time>
      </trkpt>
      <trkpt lat="44.49605" lon="1.30622">
        <ele>251.011246</ele>
        <time>2020-06-07T09:45:30Z</time>
      </trkpt>
      <trkpt lat="44.49561" lon="1.30625">
        <ele>249.899994</ele>
        <time>2020-06-07T09:46:08Z</time>
      </trkpt>
      <trkpt lat="44.49551" lon="1.30619">
        <ele>249.880188</ele>
        <time>2020-06-07T09:46:17Z</time>
      </trkpt>
      <trkpt lat="44.49529" lon="1.30614">
        <ele>248.259064</ele>
        <time>2020-06-07T09:46:48Z</time>
      </trkpt>
      <trkpt lat="44.49512" lon="1.30617">
        <ele>243.009674</ele>
        <time>2020-06-07T09:46:54Z</time>
      </trkpt>
      <trkpt lat="44.49495" lon="1.30605">
        <ele>243.80481</ele>
        <time>2020-06-07T09:47:06Z</time>
      </trkpt>
      <trkpt lat="44.49486" lon="1.30593">
        <ele>247.444</ele>
        <time>2020-06-07T09:47:17Z</time>
      </trkpt>
      <trkpt lat="44.49477" lon="1.30578">
        <ele>253.158081</ele>
        <time>2020-06-07T09:47:30Z</time>
      </trkpt>
      <trkpt lat="44.49453" lon="1.30565">
        <ele>255.409744</ele>
        <time>2020-06-07T09:47:50Z</time>
      </trkpt>
      <trkpt lat="44.49444" lon="1.30555">
        <ele>256.162659</ele>
        <time>2020-06-07T09:49:09Z</time>
      </trkpt>
      <trkpt lat="44.49427" lon="1.30541">
        <ele>254.772507</ele>
        <time>2020-06-07T09:51:40Z</time>
      </trkpt>
      <trkpt lat="44.49409" lon="1.30544">
        <ele>250.002502</ele>
        <time>2020-06-07T09:51:49Z</time>
      </trkpt>
      <trkpt lat="44.49393" lon="1.30545">
        <ele>245.928253</ele>
        <time>2020-06-07T09:51:57Z</time>
      </trkpt>
      <trkpt lat="44.49385" lon="1.30541">
        <ele>244.004898</ele>
        <time>2020-06-07T09:52:02Z</time>
      </trkpt>
      <trkpt lat="44.49378" lon="1.30518">
        <ele>245.012329</ele>
        <time>2020-06-07T09:52:08Z</time>
      </trkpt>
      <trkpt lat="44.49373" lon="1.3048">
        <ele>245.243668</ele>
        <time>2020-06-07T09:52:16Z</time>
      </trkpt>
      <trkpt lat="44.4938" lon="1.30421">
        <ele>246.396774</ele>
        <time>2020-06-07T09:52:32Z</time>
      </trkpt>
      <trkpt lat="44.49392" lon="1.30385">
        <ele>248.462234</ele>
        <time>2020-06-07T09:52:45Z</time>
      </trkpt>
      <trkpt lat="44.49398" lon="1.30351">
        <ele>246.417374</ele>
        <time>2020-06-07T09:52:55Z</time>
      </trkpt>
      <trkpt lat="44.49416" lon="1.30317">
        <ele>246.484421</ele>
        <time>2020-06-07T09:53:05Z</time>
      </trkpt>
      <trkpt lat="44.49466" lon="1.30251">
        <ele>243.657364</ele>
        <time>2020-06-07T09:53:29Z</time>
      </trkpt>
      <trkpt lat="44.4949" lon="1.30229">
        <ele>245.447433</ele>
        <time>2020-06-07T09:53:41Z</time>
      </trkpt>
      <trkpt lat="44.49494" lon="1.30211">
        <ele>244.754623</ele>
        <time>2020-06-07T09:53:48Z</time>
      </trkpt>
      <trkpt lat="44.4949" lon="1.30195">
        <ele>242.966019</ele>
        <time>2020-06-07T09:54:37Z</time>
      </trkpt>
      <trkpt lat="44.49476" lon="1.30162">
        <ele>240.716721</ele>
        <time>2020-06-07T09:54:47Z</time>
      </trkpt>
      <trkpt lat="44.49468" lon="1.30129">
        <ele>240.832703</ele>
        <time>2020-06-07T09:54:59Z</time>
      </trkpt>
      <trkpt lat="44.49465" lon="1.30118">
        <ele>240.445251</ele>
        <time>2020-06-07T09:55:27Z</time>
      </trkpt>
      <trkpt lat="44.4948" lon="1.30127">
        <ele>244.821869</ele>
        <time>2020-06-07T09:55:53Z</time>
      </trkpt>
      <trkpt lat="44.49492" lon="1.30125">
        <ele>247.706253</ele>
        <time>2020-06-07T09:56:12Z</time>
      </trkpt>
      <trkpt lat="44.49499" lon="1.30101">
        <ele>249.86969</ele>
        <time>2020-06-07T09:56:35Z</time>
      </trkpt>
      <trkpt lat="44.49491" lon="1.30078">
        <ele>249.155014</ele>
        <time>2020-06-07T09:56:57Z</time>
      </trkpt>
      <trkpt lat="44.49502" lon="1.30059">
        <ele>251.505661</ele>
        <time>2020-06-07T09:57:53Z</time>
      </trkpt>
      <trkpt lat="44.49509" lon="1.30054">
        <ele>252.227814</ele>
        <time>2020-06-07T09:58:01Z</time>
      </trkpt>
      <trkpt lat="44.49544" lon="1.30037">
        <ele>254.770126</ele>
        <time>2020-06-07T09:58:16Z</time>
      </trkpt>
      <trkpt lat="44.49603" lon="1.30012">
        <ele>256.4375</ele>
        <time>2020-06-07T09:58:34Z</time>
      </trkpt>
      <trkpt lat="44.49671" lon="1.29981">
        <ele>254.317245</ele>
        <time>2020-06-07T09:58:55Z</time>
      </trkpt>
      <trkpt lat="44.49703" lon="1.29952">
        <ele>248.977371</ele>
        <time>2020-06-07T09:59:03Z</time>
      </trkpt>
      <trkpt lat="44.49702" lon="1.29919">
        <ele>246.06218</ele>
        <time>2020-06-07T09:59:07Z</time>
      </trkpt>
      <trkpt lat="44.49688" lon="1.29819">
        <ele>237.11647</ele>
        <time>2020-06-07T09:59:17Z</time>
      </trkpt>
      <trkpt lat="44.4967" lon="1.29777">
        <ele>233.301819</ele>
        <time>2020-06-07T09:59:22Z</time>
      </trkpt>
      <trkpt lat="44.4967" lon="1.29729">
        <ele>233.675018</ele>
        <time>2020-06-07T09:59:29Z</time>
      </trkpt>
      <trkpt lat="44.49653" lon="1.29701">
        <ele>239.750717</ele>
        <time>2020-06-07T09:59:45Z</time>
      </trkpt>
      <trkpt lat="44.4962" lon="1.29695">
        <ele>240.308105</ele>
        <time>2020-06-07T10:00:04Z</time>
      </trkpt>
      <trkpt lat="44.49617" lon="1.29681">
        <ele>242.359756</ele>
        <time>2020-06-07T10:00:16Z</time>
      </trkpt>
      <trkpt lat="44.49618" lon="1.29672">
        <ele>243.633163</ele>
        <time>2020-06-07T10:00:23Z</time>
      </trkpt>
      <trkpt lat="44.49616" lon="1.29645">
        <ele>247.33931</ele>
        <time>2020-06-07T10:00:43Z</time>
      </trkpt>
      <trkpt lat="44.49614" lon="1.29633">
        <ele>249.009186</ele>
        <time>2020-06-07T10:00:55Z</time>
      </trkpt>
      <trkpt lat="44.49613" lon="1.29606">
        <ele>252.268753</ele>
        <time>2020-06-07T10:01:11Z</time>
      </trkpt>
      <trkpt lat="44.49615" lon="1.29578">
        <ele>254.929993</ele>
        <time>2020-06-07T10:01:30Z</time>
      </trkpt>
      <trkpt lat="44.49574" lon="1.29566">
        <ele>255.79509</ele>
        <time>2020-06-07T10:02:16Z</time>
      </trkpt>
      <trkpt lat="44.49561" lon="1.29571">
        <ele>254.985001</ele>
        <time>2020-06-07T10:02:26Z</time>
      </trkpt>
      <trkpt lat="44.49539" lon="1.29566">
        <ele>254.735001</ele>
        <time>2020-06-07T10:02:41Z</time>
      </trkpt>
      <trkpt lat="44.49524" lon="1.29555">
        <ele>255.370773</ele>
        <time>2020-06-07T10:02:52Z</time>
      </trkpt>
      <trkpt lat="44.49516" lon="1.29539">
        <ele>255.612503</ele>
        <time>2020-06-07T10:03:03Z</time>
      </trkpt>
      <trkpt lat="44.4951" lon="1.29533">
        <ele>254.987503</ele>
        <time>2020-06-07T10:03:08Z</time>
      </trkpt>
      <trkpt lat="44.49503" lon="1.29511">
        <ele>255.229996</ele>
        <time>2020-06-07T10:03:18Z</time>
      </trkpt>
      <trkpt lat="44.49485" lon="1.29497">
        <ele>252.962509</ele>
        <time>2020-06-07T10:03:27Z</time>
      </trkpt>
      <trkpt lat="44.49488" lon="1.29487">
        <ele>253.648407</ele>
        <time>2020-06-07T10:04:00Z</time>
      </trkpt>
      <trkpt lat="44.49487" lon="1.2947">
        <ele>253.646408</ele>
        <time>2020-06-07T10:04:22Z</time>
      </trkpt>
      <trkpt lat="44.4949" lon="1.29451">
        <ele>254.349838</ele>
        <time>2020-06-07T10:04:40Z</time>
      </trkpt>
      <trkpt lat="44.49471" lon="1.29449">
        <ele>250.808746</ele>
        <time>2020-06-07T10:04:51Z</time>
      </trkpt>
      <trkpt lat="44.49469" lon="1.29441">
        <ele>250.160629</ele>
        <time>2020-06-07T10:04:59Z</time>
      </trkpt>
      <trkpt lat="44.49471" lon="1.29419">
        <ele>250.38356</ele>
        <time>2020-06-07T10:07:36Z</time>
      </trkpt>
      <trkpt lat="44.4947" lon="1.29332">
        <ele>245.613495</ele>
        <time>2020-06-07T10:07:49Z</time>
      </trkpt>
      <trkpt lat="44.49473" lon="1.29275">
        <ele>243.679764</ele>
        <time>2020-06-07T10:07:56Z</time>
      </trkpt>
      <trkpt lat="44.49471" lon="1.29263">
        <ele>242.834122</ele>
        <time>2020-06-07T10:08:01Z</time>
      </trkpt>
      <trkpt lat="44.49472" lon="1.29217">
        <ele>241.282761</ele>
        <time>2020-06-07T10:09:38Z</time>
      </trkpt>
      <trkpt lat="44.49471" lon="1.29222">
        <ele>241.339828</ele>
        <time>2020-06-07T10:09:47Z</time>
      </trkpt>
      <trkpt lat="44.49469" lon="1.29227">
        <ele>240.740906</ele>
        <time>2020-06-07T10:10:00Z</time>
      </trkpt>
      <trkpt lat="44.49436" lon="1.29233">
        <ele>231.431488</ele>
        <time>2020-06-07T10:10:12Z</time>
      </trkpt>
      <trkpt lat="44.49424" lon="1.29234">
        <ele>227.872314</ele>
        <time>2020-06-07T10:10:16Z</time>
      </trkpt>
      <trkpt lat="44.49416" lon="1.29217">
        <ele>226.458847</ele>
        <time>2020-06-07T10:10:21Z</time>
      </trkpt>
      <trkpt lat="44.494" lon="1.29196">
        <ele>224.193634</ele>
        <time>2020-06-07T10:10:29Z</time>
      </trkpt>
      <trkpt lat="44.4937" lon="1.29177">
        <ele>218.591614</ele>
        <time>2020-06-07T10:10:47Z</time>
      </trkpt>
      <trkpt lat="44.49369" lon="1.29171">
        <ele>218.785614</ele>
        <time>2020-06-07T10:10:58Z</time>
      </trkpt>
      <trkpt lat="44.49367" lon="1.29151">
        <ele>220.384964</ele>
        <time>2020-06-07T10:11:16Z</time>
      </trkpt>
      <trkpt lat="44.49373" lon="1.29137">
        <ele>224.419739</ele>
        <time>2020-06-07T10:11:48Z</time>
      </trkpt>
      <trkpt lat="44.49374" lon="1.29124">
        <ele>226.151443</ele>
        <time>2020-06-07T10:12:01Z</time>
      </trkpt>
      <trkpt lat="44.49371" lon="1.291">
        <ele>228.617615</ele>
        <time>2020-06-07T10:12:17Z</time>
      </trkpt>
      <trkpt lat="44.49374" lon="1.29087">
        <ele>231.940155</ele>
        <time>2020-06-07T10:12:26Z</time>
      </trkpt>
      <trkpt lat="44.49372" lon="1.29072">
        <ele>233.436615</ele>
        <time>2020-06-07T10:12:39Z</time>
      </trkpt>
      <trkpt lat="44.49373" lon="1.29061">
        <ele>235.296219</ele>
        <time>2020-06-07T10:12:50Z</time>
      </trkpt>
      <trkpt lat="44.49371" lon="1.29053">
        <ele>235.685974</ele>
        <time>2020-06-07T10:12:59Z</time>
      </trkpt>
      <trkpt lat="44.49371" lon="1.29043">
        <ele>236.23468</ele>
        <time>2020-06-07T10:13:08Z</time>
      </trkpt>
      <trkpt lat="44.49368" lon="1.29037">
        <ele>235.457611</ele>
        <time>2020-06-07T10:13:18Z</time>
      </trkpt>
      <trkpt lat="44.49368" lon="1.29027">
        <ele>235.847183</ele>
        <time>2020-06-07T10:13:25Z</time>
      </trkpt>
      <trkpt lat="44.49363" lon="1.29013">
        <ele>234.855453</ele>
        <time>2020-06-07T10:13:37Z</time>
      </trkpt>
      <trkpt lat="44.49366" lon="1.28999">
        <ele>237.127655</ele>
        <time>2020-06-07T10:13:45Z</time>
      </trkpt>
      <trkpt lat="44.49365" lon="1.2898">
        <ele>238.464005</ele>
        <time>2020-06-07T10:13:55Z</time>
      </trkpt>
      <trkpt lat="44.49359" lon="1.2896">
        <ele>238.972519</ele>
        <time>2020-06-07T10:14:04Z</time>
      </trkpt>
      <trkpt lat="44.49353" lon="1.28935">
        <ele>240.493866</ele>
        <time>2020-06-07T10:14:15Z</time>
      </trkpt>
      <trkpt lat="44.49353" lon="1.28912">
        <ele>243.223419</ele>
        <time>2020-06-07T10:14:23Z</time>
      </trkpt>
      <trkpt lat="44.49344" lon="1.28894">
        <ele>243.97377</ele>
        <time>2020-06-07T10:14:35Z</time>
      </trkpt>
      <trkpt lat="44.49335" lon="1.28867">
        <ele>246.785492</ele>
        <time>2020-06-07T10:14:45Z</time>
      </trkpt>
      <trkpt lat="44.4933" lon="1.28843">
        <ele>249.850143</ele>
        <time>2020-06-07T10:15:04Z</time>
      </trkpt>
      <trkpt lat="44.49304" lon="1.28791">
        <ele>250.241699</ele>
        <time>2020-06-07T10:15:27Z</time>
      </trkpt>
      <trkpt lat="44.49283" lon="1.28739">
        <ele>256.449524</ele>
        <time>2020-06-07T10:15:47Z</time>
      </trkpt>
      <trkpt lat="44.49281" lon="1.28724">
        <ele>256.521515</ele>
        <time>2020-06-07T10:15:58Z</time>
      </trkpt>
      <trkpt lat="44.49271" lon="1.28707">
        <ele>254.29129</ele>
        <time>2020-06-07T10:16:09Z</time>
      </trkpt>
      <trkpt lat="44.49257" lon="1.2867">
        <ele>256.973816</ele>
        <time>2020-06-07T10:16:33Z</time>
      </trkpt>
      <trkpt lat="44.49245" lon="1.28647">
        <ele>259.301636</ele>
        <time>2020-06-07T10:16:45Z</time>
      </trkpt>
      <trkpt lat="44.4921" lon="1.28593">
        <ele>260.508362</ele>
        <time>2020-06-07T10:17:11Z</time>
      </trkpt>
      <trkpt lat="44.49213" lon="1.28594">
        <ele>260.757904</ele>
        <time>2020-06-07T10:51:47Z</time>
      </trkpt>
      <trkpt lat="44.49207" lon="1.28566">
        <ele>264.83609</ele>
        <time>2020-06-07T10:51:56Z</time>
      </trkpt>
      <trkpt lat="44.49138" lon="1.28512">
        <ele>253.172745</ele>
        <time>2020-06-07T10:52:15Z</time>
      </trkpt>
      <trkpt lat="44.49132" lon="1.28503">
        <ele>254.87767</ele>
        <time>2020-06-07T10:52:24Z</time>
      </trkpt>
      <trkpt lat="44.49099" lon="1.28504">
        <ele>248.14537</ele>
        <time>2020-06-07T10:52:32Z</time>
      </trkpt>
      <trkpt lat="44.49078" lon="1.28502">
        <ele>244.728378</ele>
        <time>2020-06-07T10:52:37Z</time>
      </trkpt>
      <trkpt lat="44.49055" lon="1.28503">
        <ele>240.009689</ele>
        <time>2020-06-07T10:52:42Z</time>
      </trkpt>
      <trkpt lat="44.4902" lon="1.28488">
        <ele>238.855698</ele>
        <time>2020-06-07T10:52:58Z</time>
      </trkpt>
      <trkpt lat="44.48994" lon="1.28475">
        <ele>238.012802</ele>
        <time>2020-06-07T10:53:11Z</time>
      </trkpt>
      <trkpt lat="44.48937" lon="1.28444">
        <ele>241.640747</ele>
        <time>2020-06-07T10:53:31Z</time>
      </trkpt>
      <trkpt lat="44.489" lon="1.28437">
        <ele>240.361465</ele>
        <time>2020-06-07T10:53:40Z</time>
      </trkpt>
      <trkpt lat="44.48851" lon="1.28419">
        <ele>236.218781</ele>
        <time>2020-06-07T10:53:50Z</time>
      </trkpt>
      <trkpt lat="44.48825" lon="1.28418">
        <ele>234.221329</ele>
        <time>2020-06-07T10:53:54Z</time>
      </trkpt>
      <trkpt lat="44.48774" lon="1.28412">
        <ele>232.476944</ele>
        <time>2020-06-07T10:54:03Z</time>
      </trkpt>
      <trkpt lat="44.48738" lon="1.28406">
        <ele>232.552933</ele>
        <time>2020-06-07T10:54:11Z</time>
      </trkpt>
      <trkpt lat="44.48716" lon="1.28394">
        <ele>235.171021</ele>
        <time>2020-06-07T10:54:19Z</time>
      </trkpt>
      <trkpt lat="44.48716" lon="1.28386">
        <ele>237.826767</ele>
        <time>2020-06-07T10:57:02Z</time>
      </trkpt>
      <trkpt lat="44.4871" lon="1.28388">
        <ele>237.008453</ele>
        <time>2020-06-07T10:57:10Z</time>
      </trkpt>
      <trkpt lat="44.48661" lon="1.28387">
        <ele>235.208755</ele>
        <time>2020-06-07T10:57:19Z</time>
      </trkpt>
      <trkpt lat="44.48632" lon="1.28383">
        <ele>235.14595</ele>
        <time>2020-06-07T10:57:24Z</time>
      </trkpt>
      <trkpt lat="44.48567" lon="1.28357">
        <ele>232.064468</ele>
        <time>2020-06-07T10:57:46Z</time>
      </trkpt>
      <trkpt lat="44.48538" lon="1.2836">
        <ele>229.878632</ele>
        <time>2020-06-07T10:58:00Z</time>
      </trkpt>
      <trkpt lat="44.48529" lon="1.28366">
        <ele>228.825577</ele>
        <time>2020-06-07T10:58:08Z</time>
      </trkpt>
      <trkpt lat="44.48567" lon="1.28358">
        <ele>231.905121</ele>
        <time>2020-06-07T11:01:19Z</time>
      </trkpt>
      <trkpt lat="44.48617" lon="1.28381">
        <ele>235.413574</ele>
        <time>2020-06-07T11:01:27Z</time>
      </trkpt>
      <trkpt lat="44.48654" lon="1.28393">
        <ele>232.245621</ele>
        <time>2020-06-07T11:01:33Z</time>
      </trkpt>
      <trkpt lat="44.48693" lon="1.28396">
        <ele>233.674744</ele>
        <time>2020-06-07T11:01:54Z</time>
      </trkpt>
      <trkpt lat="44.48701" lon="1.28393">
        <ele>235.27977</ele>
        <time>2020-06-07T11:02:00Z</time>
      </trkpt>
      <trkpt lat="44.48718" lon="1.28405">
        <ele>231.977386</ele>
        <time>2020-06-07T11:02:10Z</time>
      </trkpt>
      <trkpt lat="44.48742" lon="1.28405">
        <ele>233.124649</ele>
        <time>2020-06-07T11:02:20Z</time>
      </trkpt>
      <trkpt lat="44.48807" lon="1.28416">
        <ele>233.391907</ele>
        <time>2020-06-07T11:02:44Z</time>
      </trkpt>
      <trkpt lat="44.48844" lon="1.28419">
        <ele>235.627869</ele>
        <time>2020-06-07T11:03:01Z</time>
      </trkpt>
      <trkpt lat="44.48878" lon="1.28428">
        <ele>238.43663</ele>
        <time>2020-06-07T11:03:36Z</time>
      </trkpt>
      <trkpt lat="44.48897" lon="1.28437">
        <ele>239.976547</ele>
        <time>2020-06-07T11:03:46Z</time>
      </trkpt>
      <trkpt lat="44.48938" lon="1.28446">
        <ele>240.893707</ele>
        <time>2020-06-07T11:04:02Z</time>
      </trkpt>
      <trkpt lat="44.48978" lon="1.28465">
        <ele>238.8237</ele>
        <time>2020-06-07T11:04:18Z</time>
      </trkpt>
      <trkpt lat="44.49042" lon="1.28501">
        <ele>239.46875</ele>
        <time>2020-06-07T11:04:41Z</time>
      </trkpt>
      <trkpt lat="44.49063" lon="1.28491">
        <ele>243.267319</ele>
        <time>2020-06-07T11:04:49Z</time>
      </trkpt>
      <trkpt lat="44.4912" lon="1.28459">
        <ele>250.772598</ele>
        <time>2020-06-07T11:05:16Z</time>
      </trkpt>
      <trkpt lat="44.4914" lon="1.28441">
        <ele>252.975769</ele>
        <time>2020-06-07T11:05:30Z</time>
      </trkpt>
      <trkpt lat="44.49163" lon="1.28423">
        <ele>254.670975</ele>
        <time>2020-06-07T11:05:43Z</time>
      </trkpt>
      <trkpt lat="44.49189" lon="1.28395">
        <ele>256.134308</ele>
        <time>2020-06-07T11:06:00Z</time>
      </trkpt>
      <trkpt lat="44.49212" lon="1.28381">
        <ele>258.536865</ele>
        <time>2020-06-07T11:06:15Z</time>
      </trkpt>
      <trkpt lat="44.49304" lon="1.28339">
        <ele>262.826233</ele>
        <time>2020-06-07T11:06:57Z</time>
      </trkpt>
      <trkpt lat="44.49431" lon="1.28245">
        <ele>261.771362</ele>
        <time>2020-06-07T11:08:18Z</time>
      </trkpt>
      <trkpt lat="44.49456" lon="1.2823">
        <ele>262.122803</ele>
        <time>2020-06-07T11:08:32Z</time>
      </trkpt>
      <trkpt lat="44.49477" lon="1.28217">
        <ele>262.13559</ele>
        <time>2020-06-07T11:08:45Z</time>
      </trkpt>
      <trkpt lat="44.49494" lon="1.282">
        <ele>262.32019</ele>
        <time>2020-06-07T11:08:54Z</time>
      </trkpt>
      <trkpt lat="44.49561" lon="1.2812">
        <ele>263.503754</ele>
        <time>2020-06-07T11:09:24Z</time>
      </trkpt>
      <trkpt lat="44.49615" lon="1.28081">
        <ele>263.710052</ele>
        <time>2020-06-07T11:09:42Z</time>
      </trkpt>
      <trkpt lat="44.4966" lon="1.28015">
        <ele>265.734772</ele>
        <time>2020-06-07T11:10:01Z</time>
      </trkpt>
      <trkpt lat="44.4962" lon="1.27967">
        <ele>266.045288</ele>
        <time>2020-06-07T11:10:13Z</time>
      </trkpt>
      <trkpt lat="44.49586" lon="1.27923">
        <ele>264.845612</ele>
        <time>2020-06-07T11:10:22Z</time>
      </trkpt>
      <trkpt lat="44.49589" lon="1.27878">
        <ele>263.378296</ele>
        <time>2020-06-07T11:10:29Z</time>
      </trkpt>
      <trkpt lat="44.49625" lon="1.27831">
        <ele>263.320801</ele>
        <time>2020-06-07T11:10:39Z</time>
      </trkpt>
      <trkpt lat="44.49678" lon="1.27732">
        <ele>264.59964</ele>
        <time>2020-06-07T11:11:02Z</time>
      </trkpt>
      <trkpt lat="44.49743" lon="1.27621">
        <ele>269.899994</ele>
        <time>2020-06-07T11:11:35Z</time>
      </trkpt>
      <trkpt lat="44.49789" lon="1.27572">
        <ele>270.584869</ele>
        <time>2020-06-07T11:12:01Z</time>
      </trkpt>
      <trkpt lat="44.49834" lon="1.27513">
        <ele>269.377808</ele>
        <time>2020-06-07T11:12:19Z</time>
      </trkpt>
      <trkpt lat="44.49864" lon="1.27464">
        <ele>268.424347</ele>
        <time>2020-06-07T11:12:28Z</time>
      </trkpt>
      <trkpt lat="44.49899" lon="1.27368">
        <ele>266.644989</ele>
        <time>2020-06-07T11:12:44Z</time>
      </trkpt>
      <trkpt lat="44.49925" lon="1.27288">
        <ele>261.03125</ele>
        <time>2020-06-07T11:12:59Z</time>
      </trkpt>
      <trkpt lat="44.49967" lon="1.27215">
        <ele>258.966644</ele>
        <time>2020-06-07T11:13:15Z</time>
      </trkpt>
      <trkpt lat="44.50024" lon="1.27078">
        <ele>258.35202</ele>
        <time>2020-06-07T11:13:42Z</time>
      </trkpt>
      <trkpt lat="44.50053" lon="1.26992">
        <ele>250.63121</ele>
        <time>2020-06-07T11:13:52Z</time>
      </trkpt>
      <trkpt lat="44.50085" lon="1.26932">
        <ele>249.237198</ele>
        <time>2020-06-07T11:13:59Z</time>
      </trkpt>
      <trkpt lat="44.50117" lon="1.26881">
        <ele>251.115051</ele>
        <time>2020-06-07T11:14:09Z</time>
      </trkpt>
      <trkpt lat="44.50148" lon="1.26852">
        <ele>253.88443</ele>
        <time>2020-06-07T11:14:25Z</time>
      </trkpt>
      <trkpt lat="44.50184" lon="1.26824">
        <ele>256.059692</ele>
        <time>2020-06-07T11:14:39Z</time>
      </trkpt>
      <trkpt lat="44.50215" lon="1.26795">
        <ele>257.809021</ele>
        <time>2020-06-07T11:14:48Z</time>
      </trkpt>
      <trkpt lat="44.50302" lon="1.26734">
        <ele>256.891296</ele>
        <time>2020-06-07T11:15:08Z</time>
      </trkpt>
      <trkpt lat="44.50425" lon="1.26635">
        <ele>246.106995</ele>
        <time>2020-06-07T11:15:39Z</time>
      </trkpt>
      <trkpt lat="44.50476" lon="1.26587">
        <ele>243.140976</ele>
        <time>2020-06-07T11:15:48Z</time>
      </trkpt>
      <trkpt lat="44.50515" lon="1.26547">
        <ele>245.97464</ele>
        <time>2020-06-07T11:15:57Z</time>
      </trkpt>
      <trkpt lat="44.50592" lon="1.26394">
        <ele>248.097046</ele>
        <time>2020-06-07T11:16:28Z</time>
      </trkpt>
      <trkpt lat="44.50628" lon="1.26346">
        <ele>239.302139</ele>
        <time>2020-06-07T11:16:34Z</time>
      </trkpt>
      <trkpt lat="44.50677" lon="1.26311">
        <ele>229.258392</ele>
        <time>2020-06-07T11:16:40Z</time>
      </trkpt>
      <trkpt lat="44.50714" lon="1.26277">
        <ele>223.294144</ele>
        <time>2020-06-07T11:16:45Z</time>
      </trkpt>
      <trkpt lat="44.50731" lon="1.26248">
        <ele>219.358963</ele>
        <time>2020-06-07T11:16:50Z</time>
      </trkpt>
      <trkpt lat="44.50716" lon="1.26225">
        <ele>217.734756</ele>
        <time>2020-06-07T11:16:54Z</time>
      </trkpt>
      <trkpt lat="44.50706" lon="1.26184">
        <ele>211.540314</ele>
        <time>2020-06-07T11:17:01Z</time>
      </trkpt>
      <trkpt lat="44.50712" lon="1.26156">
        <ele>206.033218</ele>
        <time>2020-06-07T11:17:06Z</time>
      </trkpt>
      <trkpt lat="44.50714" lon="1.26141">
        <ele>203.300354</ele>
        <time>2020-06-07T11:17:10Z</time>
      </trkpt>
      <trkpt lat="44.50727" lon="1.26123">
        <ele>203.774002</ele>
        <time>2020-06-07T11:17:17Z</time>
      </trkpt>
      <trkpt lat="44.50736" lon="1.26118">
        <ele>203.730896</ele>
        <time>2020-06-07T11:17:25Z</time>
      </trkpt>
      <trkpt lat="44.50771" lon="1.26114">
        <ele>201.456665</ele>
        <time>2020-06-07T11:17:45Z</time>
      </trkpt>
      <trkpt lat="44.50811" lon="1.26119">
        <ele>196.918396</ele>
        <time>2020-06-07T11:17:51Z</time>
      </trkpt>
      <trkpt lat="44.50842" lon="1.26109">
        <ele>192.320251</ele>
        <time>2020-06-07T11:17:55Z</time>
      </trkpt>
      <trkpt lat="44.50889" lon="1.26125">
        <ele>184.904694</ele>
        <time>2020-06-07T11:18:01Z</time>
      </trkpt>
      <trkpt lat="44.50931" lon="1.26185">
        <ele>183.711044</ele>
        <time>2020-06-07T11:18:07Z</time>
      </trkpt>
      <trkpt lat="44.50978" lon="1.26211">
        <ele>172.212494</ele>
        <time>2020-06-07T11:18:12Z</time>
      </trkpt>
      <trkpt lat="44.51028" lon="1.26224">
        <ele>160.375</ele>
        <time>2020-06-07T11:18:17Z</time>
      </trkpt>
      <trkpt lat="44.51062" lon="1.26213">
        <ele>152.740372</ele>
        <time>2020-06-07T11:18:21Z</time>
      </trkpt>
      <trkpt lat="44.51072" lon="1.26205">
        <ele>150.173706</ele>
        <time>2020-06-07T11:18:26Z</time>
      </trkpt>
      <trkpt lat="44.51082" lon="1.26223">
        <ele>147.854324</ele>
        <time>2020-06-07T11:18:37Z</time>
      </trkpt>
      <trkpt lat="44.511" lon="1.26262">
        <ele>144.439377</ele>
        <time>2020-06-07T11:18:49Z</time>
      </trkpt>
      <trkpt lat="44.51106" lon="1.26299">
        <ele>143.630493</ele>
        <time>2020-06-07T11:18:58Z</time>
      </trkpt>
      <trkpt lat="44.51117" lon="1.26333">
        <ele>139.720642</ele>
        <time>2020-06-07T11:19:09Z</time>
      </trkpt>
      <trkpt lat="44.5114" lon="1.26345">
        <ele>133.908203</ele>
        <time>2020-06-07T11:19:22Z</time>
      </trkpt>
      <trkpt lat="44.51147" lon="1.26336">
        <ele>134.08548</ele>
        <time>2020-06-07T11:19:29Z</time>
      </trkpt>
      <trkpt lat="44.51153" lon="1.26338">
        <ele>132.817902</ele>
        <time>2020-06-07T11:19:35Z</time>
      </trkpt>
      <trkpt lat="44.51167" lon="1.26331">
        <ele>129.924591</ele>
        <time>2020-06-07T11:19:47Z</time>
      </trkpt>
      <trkpt lat="44.51154" lon="1.26309">
        <ele>133.691422</ele>
        <time>2020-06-07T11:19:55Z</time>
      </trkpt>
      <trkpt lat="44.51153" lon="1.26299">
        <ele>133.536942</ele>
        <time>2020-06-07T11:19:59Z</time>
      </trkpt>
      <trkpt lat="44.51159" lon="1.26253">
        <ele>129.887497</ele>
        <time>2020-06-07T11:20:31Z</time>
      </trkpt>
      <trkpt lat="44.5116" lon="1.26255">
        <ele>129.690628</ele>
        <time>2020-06-07T11:20:38Z</time>
      </trkpt>
      <trkpt lat="44.51178" lon="1.26254">
        <ele>125.556252</ele>
        <time>2020-06-07T11:20:48Z</time>
      </trkpt>
      <trkpt lat="44.51188" lon="1.26243">
        <ele>122.646873</ele>
        <time>2020-06-07T11:20:54Z</time>
      </trkpt>
      <trkpt lat="44.5117" lon="1.26142">
        <ele>120.925003</ele>
        <time>2020-06-07T11:21:23Z</time>
      </trkpt>
      <trkpt lat="44.51245" lon="1.26115">
        <ele>111.790154</ele>
        <time>2020-06-07T11:21:39Z</time>
      </trkpt>
      <trkpt lat="44.51264" lon="1.26098">
        <ele>112.042252</ele>
        <time>2020-06-07T11:21:47Z</time>
      </trkpt>
      <trkpt lat="44.51275" lon="1.26098">
        <ele>112.288597</ele>
        <time>2020-06-07T11:21:56Z</time>
      </trkpt>
      <trkpt lat="44.51286" lon="1.26075">
        <ele>113.138763</ele>
        <time>2020-06-07T11:24:03Z</time>
      </trkpt>
      <trkpt lat="44.51322" lon="1.2606">
        <ele>118.078041</ele>
        <time>2020-06-07T11:24:19Z</time>
      </trkpt>
      <trkpt lat="44.51346" lon="1.26093">
        <ele>120.581253</ele>
        <time>2020-06-07T11:24:35Z</time>
      </trkpt>
      <trkpt lat="44.51372" lon="1.26131">
        <ele>122.300194</ele>
        <time>2020-06-07T11:24:50Z</time>
      </trkpt>
      <trkpt lat="44.51406" lon="1.2619">
        <ele>123.983704</ele>
        <time>2020-06-07T11:25:11Z</time>
      </trkpt>
      <trkpt lat="44.51434" lon="1.26245">
        <ele>125.468941</ele>
        <time>2020-06-07T11:25:31Z</time>
      </trkpt>
      <trkpt lat="44.51466" lon="1.26273">
        <ele>131.271698</ele>
        <time>2020-06-07T11:25:54Z</time>
      </trkpt>
      <trkpt lat="44.51483" lon="1.26301">
        <ele>131.697388</ele>
        <time>2020-06-07T11:26:09Z</time>
      </trkpt>
      <trkpt lat="44.51507" lon="1.26324">
        <ele>132.182632</ele>
        <time>2020-06-07T11:26:25Z</time>
      </trkpt>
      <trkpt lat="44.51549" lon="1.26321">
        <ele>132.632126</ele>
        <time>2020-06-07T11:26:45Z</time>
      </trkpt>
      <trkpt lat="44.51564" lon="1.26308">
        <ele>134.019104</ele>
        <time>2020-06-07T11:26:55Z</time>
      </trkpt>
      <trkpt lat="44.51606" lon="1.26282">
        <ele>139.217712</ele>
        <time>2020-06-07T11:27:17Z</time>
      </trkpt>
      <trkpt lat="44.51631" lon="1.26261">
        <ele>142.58609</ele>
        <time>2020-06-07T11:27:28Z</time>
      </trkpt>
      <trkpt lat="44.51671" lon="1.26235">
        <ele>148.063232</ele>
        <time>2020-06-07T11:28:00Z</time>
      </trkpt>
      <trkpt lat="44.51691" lon="1.26226">
        <ele>150.962402</ele>
        <time>2020-06-07T11:28:14Z</time>
      </trkpt>
      <trkpt lat="44.51705" lon="1.26227">
        <ele>152.80864</ele>
        <time>2020-06-07T11:28:23Z</time>
      </trkpt>
      <trkpt lat="44.51729" lon="1.26225">
        <ele>156.440552</ele>
        <time>2020-06-07T11:28:40Z</time>
      </trkpt>
      <trkpt lat="44.51759" lon="1.26231">
        <ele>160.98056</ele>
        <time>2020-06-07T11:29:01Z</time>
      </trkpt>
      <trkpt lat="44.51775" lon="1.26231">
        <ele>163.560455</ele>
        <time>2020-06-07T11:29:11Z</time>
      </trkpt>
      <trkpt lat="44.51791" lon="1.26234">
        <ele>166.345566</ele>
        <time>2020-06-07T11:29:22Z</time>
      </trkpt>
      <trkpt lat="44.51796" lon="1.26234">
        <ele>167.025375</ele>
        <time>2020-06-07T11:29:26Z</time>
      </trkpt>
      <trkpt lat="44.51855" lon="1.2621">
        <ele>171.568741</ele>
        <time>2020-06-07T11:29:59Z</time>
      </trkpt>
      <trkpt lat="44.51877" lon="1.26205">
        <ele>172.482773</ele>
        <time>2020-06-07T11:30:15Z</time>
      </trkpt>
      <trkpt lat="44.5192" lon="1.26191">
        <ele>172.85376</ele>
        <time>2020-06-07T11:30:37Z</time>
      </trkpt>
      <trkpt lat="44.51931" lon="1.26189">
        <ele>174.644577</ele>
        <time>2020-06-07T11:30:46Z</time>
      </trkpt>
      <trkpt lat="44.51944" lon="1.26186">
        <ele>176.288269</ele>
        <time>2020-06-07T11:31:00Z</time>
      </trkpt>
      <trkpt lat="44.51952" lon="1.26178">
        <ele>177.037064</ele>
        <time>2020-06-07T11:31:06Z</time>
      </trkpt>
      <trkpt lat="44.51973" lon="1.26164">
        <ele>181.153854</ele>
        <time>2020-06-07T11:31:17Z</time>
      </trkpt>
      <trkpt lat="44.5198" lon="1.26149">
        <ele>182.074631</ele>
        <time>2020-06-07T11:31:27Z</time>
      </trkpt>
      <trkpt lat="44.5198" lon="1.26134">
        <ele>181.819565</ele>
        <time>2020-06-07T11:31:39Z</time>
      </trkpt>
      <trkpt lat="44.51985" lon="1.26121">
        <ele>181.566513</ele>
        <time>2020-06-07T11:31:50Z</time>
      </trkpt>
      <trkpt lat="44.51991" lon="1.26113">
        <ele>181.640945</ele>
        <time>2020-06-07T11:31:57Z</time>
      </trkpt>
      <trkpt lat="44.52009" lon="1.26082">
        <ele>184.622772</ele>
        <time>2020-06-07T11:32:11Z</time>
      </trkpt>
      <trkpt lat="44.5203" lon="1.2604">
        <ele>189.57814</ele>
        <time>2020-06-07T11:32:29Z</time>
      </trkpt>
      <trkpt lat="44.52052" lon="1.25991">
        <ele>191.632751</ele>
        <time>2020-06-07T11:32:52Z</time>
      </trkpt>
      <trkpt lat="44.52068" lon="1.25966">
        <ele>193.48999</ele>
        <time>2020-06-07T11:33:05Z</time>
      </trkpt>
      <trkpt lat="44.5208" lon="1.25945">
        <ele>194.02095</ele>
        <time>2020-06-07T11:33:16Z</time>
      </trkpt>
      <trkpt lat="44.52091" lon="1.25933">
        <ele>194.290619</ele>
        <time>2020-06-07T11:33:24Z</time>
      </trkpt>
      <trkpt lat="44.52107" lon="1.25912">
        <ele>196.549088</ele>
        <time>2020-06-07T11:33:39Z</time>
      </trkpt>
      <trkpt lat="44.52116" lon="1.25895">
        <ele>197.714981</ele>
        <time>2020-06-07T11:33:51Z</time>
      </trkpt>
      <trkpt lat="44.52144" lon="1.25862">
        <ele>200.750931</ele>
        <time>2020-06-07T11:34:14Z</time>
      </trkpt>
      <trkpt lat="44.52155" lon="1.25852">
        <ele>204.166504</ele>
        <time>2020-06-07T11:34:23Z</time>
      </trkpt>
      <trkpt lat="44.52171" lon="1.25829">
        <ele>209.258942</ele>
        <time>2020-06-07T11:34:38Z</time>
      </trkpt>
      <trkpt lat="44.52181" lon="1.25817">
        <ele>211.871078</ele>
        <time>2020-06-07T11:34:46Z</time>
      </trkpt>
      <trkpt lat="44.52189" lon="1.25811">
        <ele>213.216843</ele>
        <time>2020-06-07T11:34:53Z</time>
      </trkpt>
      <trkpt lat="44.522" lon="1.25799">
        <ele>215.129608</ele>
        <time>2020-06-07T11:35:04Z</time>
      </trkpt>
      <trkpt lat="44.52234" lon="1.25758">
        <ele>217.489105</ele>
        <time>2020-06-07T11:35:39Z</time>
      </trkpt>
      <trkpt lat="44.52248" lon="1.25753">
        <ele>217.558105</ele>
        <time>2020-06-07T11:35:51Z</time>
      </trkpt>
      <trkpt lat="44.52249" lon="1.25769">
        <ele>218.106995</ele>
        <time>2020-06-07T11:36:10Z</time>
      </trkpt>
      <trkpt lat="44.52257" lon="1.25808">
        <ele>219.546875</ele>
        <time>2020-06-07T11:36:35Z</time>
      </trkpt>
      <trkpt lat="44.52262" lon="1.25867">
        <ele>220.632294</ele>
        <time>2020-06-07T11:37:06Z</time>
      </trkpt>
      <trkpt lat="44.52256" lon="1.25898">
        <ele>220.918671</ele>
        <time>2020-06-07T11:37:20Z</time>
      </trkpt>
      <trkpt lat="44.52256" lon="1.25934">
        <ele>221.513748</ele>
        <time>2020-06-07T11:37:34Z</time>
      </trkpt>
      <trkpt lat="44.52258" lon="1.25975">
        <ele>222.133743</ele>
        <time>2020-06-07T11:37:50Z</time>
      </trkpt>
      <trkpt lat="44.52262" lon="1.26029">
        <ele>223.595001</ele>
        <time>2020-06-07T11:38:10Z</time>
      </trkpt>
      <trkpt lat="44.5226" lon="1.26065">
        <ele>224.99205</ele>
        <time>2020-06-07T11:38:22Z</time>
      </trkpt>
      <trkpt lat="44.52246" lon="1.26146">
        <ele>228.595627</ele>
        <time>2020-06-07T11:38:43Z</time>
      </trkpt>
      <trkpt lat="44.5224" lon="1.262">
        <ele>231.183121</ele>
        <time>2020-06-07T11:38:58Z</time>
      </trkpt>
      <trkpt lat="44.52217" lon="1.26303">
        <ele>236.793442</ele>
        <time>2020-06-07T11:39:26Z</time>
      </trkpt>
      <trkpt lat="44.52211" lon="1.26322">
        <ele>238.714874</ele>
        <time>2020-06-07T11:39:37Z</time>
      </trkpt>
      <trkpt lat="44.5222" lon="1.26302">
        <ele>236.843445</ele>
        <time>2020-06-07T11:39:55Z</time>
      </trkpt>
      <trkpt lat="44.52229" lon="1.26326">
        <ele>239.343719</ele>
        <time>2020-06-07T11:40:09Z</time>
      </trkpt>
      <trkpt lat="44.5223" lon="1.26358">
        <ele>242.445404</ele>
        <time>2020-06-07T11:40:25Z</time>
      </trkpt>
      <trkpt lat="44.52232" lon="1.26385">
        <ele>245.310394</ele>
        <time>2020-06-07T11:40:39Z</time>
      </trkpt>
      <trkpt lat="44.52231" lon="1.26405">
        <ele>247.603119</ele>
        <time>2020-06-07T11:40:50Z</time>
      </trkpt>
      <trkpt lat="44.52222" lon="1.2643">
        <ele>250.562653</ele>
        <time>2020-06-07T11:41:07Z</time>
      </trkpt>
      <trkpt lat="44.52221" lon="1.26439">
        <ele>251.662491</ele>
        <time>2020-06-07T11:41:13Z</time>
      </trkpt>
      <trkpt lat="44.52216" lon="1.26455">
        <ele>253.556244</ele>
        <time>2020-06-07T11:41:28Z</time>
      </trkpt>
      <trkpt lat="44.52211" lon="1.26485">
        <ele>256.875854</ele>
        <time>2020-06-07T11:41:39Z</time>
      </trkpt>
      <trkpt lat="44.52222" lon="1.26511">
        <ele>259.696533</ele>
        <time>2020-06-07T11:41:58Z</time>
      </trkpt>
      <trkpt lat="44.52242" lon="1.26547">
        <ele>263.461365</ele>
        <time>2020-06-07T11:42:21Z</time>
      </trkpt>
      <trkpt lat="44.52249" lon="1.26565">
        <ele>264.761292</ele>
        <time>2020-06-07T11:42:32Z</time>
      </trkpt>
      <trkpt lat="44.52247" lon="1.26584">
        <ele>265.826721</ele>
        <time>2020-06-07T11:42:42Z</time>
      </trkpt>
      <trkpt lat="44.52234" lon="1.26633">
        <ele>267.221252</ele>
        <time>2020-06-07T11:43:04Z</time>
      </trkpt>
      <trkpt lat="44.52235" lon="1.26676">
        <ele>268.000641</ele>
        <time>2020-06-07T11:43:19Z</time>
      </trkpt>
      <trkpt lat="44.52251" lon="1.26719">
        <ele>266.11499</ele>
        <time>2020-06-07T11:43:36Z</time>
      </trkpt>
      <trkpt lat="44.52275" lon="1.26709">
        <ele>267.790009</ele>
        <time>2020-06-07T11:43:49Z</time>
      </trkpt>
      <trkpt lat="44.52301" lon="1.26702">
        <ele>268.774384</ele>
        <time>2020-06-07T11:44:04Z</time>
      </trkpt>
      <trkpt lat="44.5232" lon="1.26704">
        <ele>269.044373</ele>
        <time>2020-06-07T11:44:14Z</time>
      </trkpt>
      <trkpt lat="44.5236" lon="1.26746">
        <ele>267.592438</ele>
        <time>2020-06-07T11:44:29Z</time>
      </trkpt>
      <trkpt lat="44.52404" lon="1.2677">
        <ele>265.385864</ele>
        <time>2020-06-07T11:44:38Z</time>
      </trkpt>
      <trkpt lat="44.52421" lon="1.26803">
        <ele>264.520416</ele>
        <time>2020-06-07T11:44:43Z</time>
      </trkpt>
      <trkpt lat="44.52434" lon="1.26842">
        <ele>263.9198</ele>
        <time>2020-06-07T11:44:49Z</time>
      </trkpt>
      <trkpt lat="44.52444" lon="1.2686">
        <ele>263.741608</ele>
        <time>2020-06-07T11:44:57Z</time>
      </trkpt>
      <trkpt lat="44.52437" lon="1.26877">
        <ele>264.054108</ele>
        <time>2020-06-07T11:47:21Z</time>
      </trkpt>
      <trkpt lat="44.52419" lon="1.26936">
        <ele>263.832397</ele>
        <time>2020-06-07T11:47:38Z</time>
      </trkpt>
      <trkpt lat="44.52375" lon="1.27034">
        <ele>262.012482</ele>
        <time>2020-06-07T11:48:02Z</time>
      </trkpt>
      <trkpt lat="44.52341" lon="1.27038">
        <ele>260.92749</ele>
        <time>2020-06-07T11:48:09Z</time>
      </trkpt>
      <trkpt lat="44.52306" lon="1.27057">
        <ele>259.523285</ele>
        <time>2020-06-07T11:48:16Z</time>
      </trkpt>
      <trkpt lat="44.52284" lon="1.27079">
        <ele>258.622894</ele>
        <time>2020-06-07T11:48:22Z</time>
      </trkpt>
      <trkpt lat="44.52258" lon="1.271">
        <ele>258.912476</ele>
        <time>2020-06-07T11:48:30Z</time>
      </trkpt>
      <trkpt lat="44.52254" lon="1.27119">
        <ele>260.226471</ele>
        <time>2020-06-07T11:48:36Z</time>
      </trkpt>
      <trkpt lat="44.52227" lon="1.27174">
        <ele>252.555344</ele>
        <time>2020-06-07T11:48:48Z</time>
      </trkpt>
      <trkpt lat="44.5223" lon="1.2723">
        <ele>245.940643</ele>
        <time>2020-06-07T11:48:56Z</time>
      </trkpt>
      <trkpt lat="44.5222" lon="1.27287">
        <ele>240.489899</ele>
        <time>2020-06-07T11:49:02Z</time>
      </trkpt>
      <trkpt lat="44.52199" lon="1.27343">
        <ele>234.112457</ele>
        <time>2020-06-07T11:49:09Z</time>
      </trkpt>
      <trkpt lat="44.52213" lon="1.2736">
        <ele>232.8405</ele>
        <time>2020-06-07T11:49:16Z</time>
      </trkpt>
      <trkpt lat="44.52221" lon="1.27397">
        <ele>230.860245</ele>
        <time>2020-06-07T11:49:23Z</time>
      </trkpt>
      <trkpt lat="44.52244" lon="1.27406">
        <ele>231.640091</ele>
        <time>2020-06-07T11:49:29Z</time>
      </trkpt>
      <trkpt lat="44.5225" lon="1.2738">
        <ele>231.676559</ele>
        <time>2020-06-07T11:49:35Z</time>
      </trkpt>
      <trkpt lat="44.52261" lon="1.27365">
        <ele>230.707031</ele>
        <time>2020-06-07T11:49:39Z</time>
      </trkpt>
      <trkpt lat="44.52289" lon="1.27353">
        <ele>227.039551</ele>
        <time>2020-06-07T11:49:44Z</time>
      </trkpt>
      <trkpt lat="44.52318" lon="1.27323">
        <ele>221.93689</ele>
        <time>2020-06-07T11:49:50Z</time>
      </trkpt>
      <trkpt lat="44.5234" lon="1.27323">
        <ele>218.593811</ele>
        <time>2020-06-07T11:49:54Z</time>
      </trkpt>
      <trkpt lat="44.52393" lon="1.27327">
        <ele>214.921402</ele>
        <time>2020-06-07T11:50:00Z</time>
      </trkpt>
      <trkpt lat="44.52426" lon="1.27341">
        <ele>212.248978</ele>
        <time>2020-06-07T11:50:05Z</time>
      </trkpt>
      <trkpt lat="44.52564" lon="1.27414">
        <ele>205.158752</ele>
        <time>2020-06-07T11:50:27Z</time>
      </trkpt>
      <trkpt lat="44.52597" lon="1.27395">
        <ele>206.943756</ele>
        <time>2020-06-07T11:50:51Z</time>
      </trkpt>
      <trkpt lat="44.52607" lon="1.2738">
        <ele>207.845428</ele>
        <time>2020-06-07T11:51:59Z</time>
      </trkpt>
      <trkpt lat="44.52636" lon="1.27346">
        <ele>208.470123</ele>
        <time>2020-06-07T11:52:17Z</time>
      </trkpt>
      <trkpt lat="44.52688" lon="1.27293">
        <ele>206.80957</ele>
        <time>2020-06-07T11:52:34Z</time>
      </trkpt>
      <trkpt lat="44.52746" lon="1.27257">
        <ele>205.621246</ele>
        <time>2020-06-07T11:52:58Z</time>
      </trkpt>
      <trkpt lat="44.528" lon="1.27196">
        <ele>201.794662</ele>
        <time>2020-06-07T11:53:16Z</time>
      </trkpt>
      <trkpt lat="44.52813" lon="1.27146">
        <ele>200.181717</ele>
        <time>2020-06-07T11:53:22Z</time>
      </trkpt>
      <trkpt lat="44.52825" lon="1.2708">
        <ele>197.861099</ele>
        <time>2020-06-07T11:53:28Z</time>
      </trkpt>
      <trkpt lat="44.52855" lon="1.27004">
        <ele>192.184998</ele>
        <time>2020-06-07T11:53:36Z</time>
      </trkpt>
      <trkpt lat="44.52889" lon="1.2694">
        <ele>194.100006</ele>
        <time>2020-06-07T11:53:45Z</time>
      </trkpt>
      <trkpt lat="44.52904" lon="1.26948">
        <ele>194.889282</ele>
        <time>2020-06-07T11:53:49Z</time>
      </trkpt>
      <trkpt lat="44.52903" lon="1.27001">
        <ele>192.351639</ele>
        <time>2020-06-07T11:53:56Z</time>
      </trkpt>
      <trkpt lat="44.529" lon="1.27057">
        <ele>187.626785</ele>
        <time>2020-06-07T11:54:01Z</time>
      </trkpt>
      <trkpt lat="44.52911" lon="1.27162">
        <ele>177.26796</ele>
        <time>2020-06-07T11:54:09Z</time>
      </trkpt>
      <trkpt lat="44.52932" lon="1.27239">
        <ele>174.318436</ele>
        <time>2020-06-07T11:54:16Z</time>
      </trkpt>
      <trkpt lat="44.5296" lon="1.27292">
        <ele>169.204376</ele>
        <time>2020-06-07T11:54:21Z</time>
      </trkpt>
      <trkpt lat="44.52986" lon="1.2734">
        <ele>164.413132</ele>
        <time>2020-06-07T11:54:26Z</time>
      </trkpt>
      <trkpt lat="44.5301" lon="1.27378">
        <ele>162.545807</ele>
        <time>2020-06-07T11:54:31Z</time>
      </trkpt>
      <trkpt lat="44.53032" lon="1.27395">
        <ele>164.050262</ele>
        <time>2020-06-07T11:54:38Z</time>
      </trkpt>
      <trkpt lat="44.53036" lon="1.27406">
        <ele>163.520355</ele>
        <time>2020-06-07T11:55:05Z</time>
      </trkpt>
      <trkpt lat="44.5305" lon="1.2742">
        <ele>163.676254</ele>
        <time>2020-06-07T11:55:16Z</time>
      </trkpt>
      <trkpt lat="44.53091" lon="1.27421">
        <ele>169.483551</ele>
        <time>2020-06-07T11:55:34Z</time>
      </trkpt>
      <trkpt lat="44.53129" lon="1.27429">
        <ele>174.447922</ele>
        <time>2020-06-07T11:55:49Z</time>
      </trkpt>
      <trkpt lat="44.53167" lon="1.27432">
        <ele>177.532928</ele>
        <time>2020-06-07T11:56:04Z</time>
      </trkpt>
      <trkpt lat="44.53202" lon="1.27411">
        <ele>177.443878</ele>
        <time>2020-06-07T11:56:19Z</time>
      </trkpt>
      <trkpt lat="44.53226" lon="1.27399">
        <ele>179.020081</ele>
        <time>2020-06-07T11:56:33Z</time>
      </trkpt>
      <trkpt lat="44.53283" lon="1.27375">
        <ele>181.195496</ele>
        <time>2020-06-07T11:57:16Z</time>
      </trkpt>
      <trkpt lat="44.53309" lon="1.27371">
        <ele>182.102173</ele>
        <time>2020-06-07T11:57:32Z</time>
      </trkpt>
      <trkpt lat="44.53313" lon="1.27368">
        <ele>181.79483</ele>
        <time>2020-06-07T11:57:40Z</time>
      </trkpt>
      <trkpt lat="44.53363" lon="1.27377">
        <ele>187.210648</ele>
        <time>2020-06-07T11:58:13Z</time>
      </trkpt>
      <trkpt lat="44.53371" lon="1.27381">
        <ele>188.774994</ele>
        <time>2020-06-07T11:58:22Z</time>
      </trkpt>
      <trkpt lat="44.53379" lon="1.2738">
        <ele>189.152496</ele>
        <time>2020-06-07T11:58:32Z</time>
      </trkpt>
      <trkpt lat="44.53414" lon="1.27392">
        <ele>195.085251</ele>
        <time>2020-06-07T11:58:57Z</time>
      </trkpt>
      <trkpt lat="44.53431" lon="1.27395">
        <ele>196.291199</ele>
        <time>2020-06-07T11:59:08Z</time>
      </trkpt>
      <trkpt lat="44.53446" lon="1.27409">
        <ele>199.704971</ele>
        <time>2020-06-07T11:59:22Z</time>
      </trkpt>
      <trkpt lat="44.53484" lon="1.27468">
        <ele>207.929367</ele>
        <time>2020-06-07T12:00:03Z</time>
      </trkpt>
      <trkpt lat="44.53512" lon="1.27525">
        <ele>214.785416</ele>
        <time>2020-06-07T12:00:32Z</time>
      </trkpt>
      <trkpt lat="44.53523" lon="1.27543">
        <ele>216.953156</ele>
        <time>2020-06-07T12:00:44Z</time>
      </trkpt>
      <trkpt lat="44.53533" lon="1.27571">
        <ele>219.830505</ele>
        <time>2020-06-07T12:00:59Z</time>
      </trkpt>
      <trkpt lat="44.5354" lon="1.2759">
        <ele>221.274826</ele>
        <time>2020-06-07T12:01:13Z</time>
      </trkpt>
      <trkpt lat="44.53554" lon="1.27613">
        <ele>223.589447</ele>
        <time>2020-06-07T12:01:25Z</time>
      </trkpt>
      <trkpt lat="44.53559" lon="1.27628">
        <ele>225.700394</ele>
        <time>2020-06-07T12:01:36Z</time>
      </trkpt>
      <trkpt lat="44.53564" lon="1.27641">
        <ele>227.318985</ele>
        <time>2020-06-07T12:01:45Z</time>
      </trkpt>
      <trkpt lat="44.53569" lon="1.27654">
        <ele>228.935577</ele>
        <time>2020-06-07T12:01:55Z</time>
      </trkpt>
      <trkpt lat="44.53577" lon="1.27665">
        <ele>230.269073</ele>
        <time>2020-06-07T12:02:05Z</time>
      </trkpt>
      <trkpt lat="44.53595" lon="1.27718">
        <ele>234.839249</ele>
        <time>2020-06-07T12:02:47Z</time>
      </trkpt>
      <trkpt lat="44.53597" lon="1.27723">
        <ele>235.35318</ele>
        <time>2020-06-07T12:02:54Z</time>
      </trkpt>
      <trkpt lat="44.53604" lon="1.27724">
        <ele>236.186234</ele>
        <time>2020-06-07T12:05:15Z</time>
      </trkpt>
      <trkpt lat="44.53612" lon="1.27728">
        <ele>237.008636</ele>
        <time>2020-06-07T12:05:24Z</time>
      </trkpt>
      <trkpt lat="44.53632" lon="1.27732">
        <ele>239.093475</ele>
        <time>2020-06-07T12:05:37Z</time>
      </trkpt>
      <trkpt lat="44.53656" lon="1.27741">
        <ele>243.136246</ele>
        <time>2020-06-07T12:05:51Z</time>
      </trkpt>
      <trkpt lat="44.53668" lon="1.2774">
        <ele>245.488129</ele>
        <time>2020-06-07T12:06:02Z</time>
      </trkpt>
      <trkpt lat="44.5368" lon="1.27736">
        <ele>247.861252</ele>
        <time>2020-06-07T12:06:11Z</time>
      </trkpt>
      <trkpt lat="44.53692" lon="1.27729">
        <ele>250.577454</ele>
        <time>2020-06-07T12:06:20Z</time>
      </trkpt>
      <trkpt lat="44.53707" lon="1.27717">
        <ele>253.451309</ele>
        <time>2020-06-07T12:06:33Z</time>
      </trkpt>
      <trkpt lat="44.53719" lon="1.27705">
        <ele>255.17186</ele>
        <time>2020-06-07T12:06:46Z</time>
      </trkpt>
      <trkpt lat="44.53757" lon="1.27684">
        <ele>259.707489</ele>
        <time>2020-06-07T12:07:16Z</time>
      </trkpt>
      <trkpt lat="44.53786" lon="1.27666">
        <ele>261.612732</ele>
        <time>2020-06-07T12:07:39Z</time>
      </trkpt>
      <trkpt lat="44.53803" lon="1.27664">
        <ele>262.854401</ele>
        <time>2020-06-07T12:07:52Z</time>
      </trkpt>
      <trkpt lat="44.53826" lon="1.27673">
        <ele>264.889618</ele>
        <time>2020-06-07T12:08:09Z</time>
      </trkpt>
      <trkpt lat="44.53854" lon="1.27684">
        <ele>266.707001</ele>
        <time>2020-06-07T12:08:26Z</time>
      </trkpt>
      <trkpt lat="44.53879" lon="1.27698">
        <ele>269.375</ele>
        <time>2020-06-07T12:08:38Z</time>
      </trkpt>
      <trkpt lat="44.53907" lon="1.277">
        <ele>270.924988</ele>
        <time>2020-06-07T12:08:53Z</time>
      </trkpt>
      <trkpt lat="44.53927" lon="1.2769">
        <ele>270.556</ele>
        <time>2020-06-07T12:09:04Z</time>
      </trkpt>
      <trkpt lat="44.53957" lon="1.27683">
        <ele>271.112488</ele>
        <time>2020-06-07T12:09:20Z</time>
      </trkpt>
      <trkpt lat="44.53967" lon="1.27677">
        <ele>270.910217</ele>
        <time>2020-06-07T12:09:32Z</time>
      </trkpt>
      <trkpt lat="44.53951" lon="1.27691">
        <ele>271.652802</ele>
        <time>2020-06-07T12:11:58Z</time>
      </trkpt>
      <trkpt lat="44.53929" lon="1.27717">
        <ele>273.641663</ele>
        <time>2020-06-07T12:12:14Z</time>
      </trkpt>
      <trkpt lat="44.53922" lon="1.27743">
        <ele>276.217224</ele>
        <time>2020-06-07T12:12:25Z</time>
      </trkpt>
      <trkpt lat="44.53927" lon="1.27775">
        <ele>279.677765</ele>
        <time>2020-06-07T12:12:40Z</time>
      </trkpt>
      <trkpt lat="44.53977" lon="1.27795">
        <ele>279.589783</ele>
        <time>2020-06-07T12:13:07Z</time>
      </trkpt>
      <trkpt lat="44.54054" lon="1.27794">
        <ele>272.187744</ele>
        <time>2020-06-07T12:13:35Z</time>
      </trkpt>
      <trkpt lat="44.54118" lon="1.27827">
        <ele>266.172211</ele>
        <time>2020-06-07T12:13:48Z</time>
      </trkpt>
      <trkpt lat="44.54119" lon="1.27884">
        <ele>264.013336</ele>
        <time>2020-06-07T12:14:31Z</time>
      </trkpt>
      <trkpt lat="44.54132" lon="1.27942">
        <ele>258.94928</ele>
        <time>2020-06-07T12:14:38Z</time>
      </trkpt>
      <trkpt lat="44.54156" lon="1.27992">
        <ele>255.132294</ele>
        <time>2020-06-07T12:14:44Z</time>
      </trkpt>
      <trkpt lat="44.54178" lon="1.28091">
        <ele>250.356873</ele>
        <time>2020-06-07T12:14:53Z</time>
      </trkpt>
      <trkpt lat="44.54173" lon="1.28103">
        <ele>250.028748</ele>
        <time>2020-06-07T12:14:57Z</time>
      </trkpt>
      <trkpt lat="44.54087" lon="1.28137">
        <ele>235.553314</ele>
        <time>2020-06-07T12:15:33Z</time>
      </trkpt>
      <trkpt lat="44.54058" lon="1.28153">
        <ele>229.959244</ele>
        <time>2020-06-07T12:15:38Z</time>
      </trkpt>
      <trkpt lat="44.54059" lon="1.28172">
        <ele>230.985352</ele>
        <time>2020-06-07T12:15:42Z</time>
      </trkpt>
      <trkpt lat="44.54039" lon="1.28208">
        <ele>227.598999</ele>
        <time>2020-06-07T12:15:49Z</time>
      </trkpt>
      <trkpt lat="44.53994" lon="1.28265">
        <ele>222.700211</ele>
        <time>2020-06-07T12:16:08Z</time>
      </trkpt>
      <trkpt lat="44.53971" lon="1.28298">
        <ele>220.711243</ele>
        <time>2020-06-07T12:16:15Z</time>
      </trkpt>
      <trkpt lat="44.53941" lon="1.28377">
        <ele>221.647842</ele>
        <time>2020-06-07T12:16:34Z</time>
      </trkpt>
      <trkpt lat="44.5392" lon="1.28426">
        <ele>219.028122</ele>
        <time>2020-06-07T12:16:46Z</time>
      </trkpt>
      <trkpt lat="44.53916" lon="1.28438">
        <ele>218.787506</ele>
        <time>2020-06-07T12:21:24Z</time>
      </trkpt>
      <trkpt lat="44.53912" lon="1.28463">
        <ele>219.185257</ele>
        <time>2020-06-07T12:21:34Z</time>
      </trkpt>
      <trkpt lat="44.53904" lon="1.28513">
        <ele>218.205887</ele>
        <time>2020-06-07T12:21:50Z</time>
      </trkpt>
      <trkpt lat="44.53905" lon="1.28561">
        <ele>217.869278</ele>
        <time>2020-06-07T12:22:08Z</time>
      </trkpt>
      <trkpt lat="44.53908" lon="1.28621">
        <ele>215.622131</ele>
        <time>2020-06-07T12:22:23Z</time>
      </trkpt>
      <trkpt lat="44.53917" lon="1.28686">
        <ele>214.019318</ele>
        <time>2020-06-07T12:22:34Z</time>
      </trkpt>
      <trkpt lat="44.53922" lon="1.28786">
        <ele>205.377502</ele>
        <time>2020-06-07T12:22:43Z</time>
      </trkpt>
      <trkpt lat="44.53937" lon="1.28867">
        <ele>197.168747</ele>
        <time>2020-06-07T12:22:50Z</time>
      </trkpt>
      <trkpt lat="44.53958" lon="1.28897">
        <ele>196.414993</ele>
        <time>2020-06-07T12:22:55Z</time>
      </trkpt>
      <trkpt lat="44.53954" lon="1.28919">
        <ele>192.681381</ele>
        <time>2020-06-07T12:22:59Z</time>
      </trkpt>
      <trkpt lat="44.53952" lon="1.28948">
        <ele>189.36615</ele>
        <time>2020-06-07T12:23:03Z</time>
      </trkpt>
      <trkpt lat="44.53966" lon="1.28968">
        <ele>189.437973</ele>
        <time>2020-06-07T12:23:11Z</time>
      </trkpt>
      <trkpt lat="44.5397" lon="1.28986">
        <ele>187.659119</ele>
        <time>2020-06-07T12:24:18Z</time>
      </trkpt>
      <trkpt lat="44.53972" lon="1.29039">
        <ele>182.165375</ele>
        <time>2020-06-07T12:24:30Z</time>
      </trkpt>
      <trkpt lat="44.53976" lon="1.2906">
        <ele>179.446609</ele>
        <time>2020-06-07T12:24:43Z</time>
      </trkpt>
      <trkpt lat="44.53994" lon="1.29056">
        <ele>178.76622</ele>
        <time>2020-06-07T12:24:55Z</time>
      </trkpt>
      <trkpt lat="44.53999" lon="1.29056">
        <ele>178.380676</ele>
        <time>2020-06-07T12:25:09Z</time>
      </trkpt>
      <trkpt lat="44.54012" lon="1.29054">
        <ele>177.762497</ele>
        <time>2020-06-07T12:28:52Z</time>
      </trkpt>
      <trkpt lat="44.54064" lon="1.2903">
        <ele>178.13829</ele>
        <time>2020-06-07T12:29:10Z</time>
      </trkpt>
      <trkpt lat="44.54134" lon="1.29012">
        <ele>179.638458</ele>
        <time>2020-06-07T12:29:29Z</time>
      </trkpt>
      <trkpt lat="44.54191" lon="1.29024">
        <ele>179.160049</ele>
        <time>2020-06-07T12:29:47Z</time>
      </trkpt>
      <trkpt lat="44.5425" lon="1.28997">
        <ele>176.548553</ele>
        <time>2020-06-07T12:30:06Z</time>
      </trkpt>
      <trkpt lat="44.54301" lon="1.2897">
        <ele>179.324493</ele>
        <time>2020-06-07T12:30:20Z</time>
      </trkpt>
      <trkpt lat="44.54358" lon="1.28958">
        <ele>179.859375</ele>
        <time>2020-06-07T12:30:32Z</time>
      </trkpt>
      <trkpt lat="44.54418" lon="1.28974">
        <ele>179.132141</ele>
        <time>2020-06-07T12:30:46Z</time>
      </trkpt>
      <trkpt lat="44.54469" lon="1.28968">
        <ele>180.720001</ele>
        <time>2020-06-07T12:31:01Z</time>
      </trkpt>
      <trkpt lat="44.54529" lon="1.28998">
        <ele>168.990555</ele>
        <time>2020-06-07T12:31:17Z</time>
      </trkpt>
      <trkpt lat="44.54573" lon="1.29005">
        <ele>166.797409</ele>
        <time>2020-06-07T12:31:22Z</time>
      </trkpt>
      <trkpt lat="44.54609" lon="1.29013">
        <ele>164.389282</ele>
        <time>2020-06-07T12:31:26Z</time>
      </trkpt>
      <trkpt lat="44.54648" lon="1.29038">
        <ele>159.538315</ele>
        <time>2020-06-07T12:31:30Z</time>
      </trkpt>
      <trkpt lat="44.54693" lon="1.29074">
        <ele>155.784866</ele>
        <time>2020-06-07T12:31:35Z</time>
      </trkpt>
      <trkpt lat="44.54749" lon="1.29095">
        <ele>156.525024</ele>
        <time>2020-06-07T12:31:41Z</time>
      </trkpt>
      <trkpt lat="44.54792" lon="1.29099">
        <ele>156.320404</ele>
        <time>2020-06-07T12:31:48Z</time>
      </trkpt>
      <trkpt lat="44.54877" lon="1.29062">
        <ele>159.191254</ele>
        <time>2020-06-07T12:32:11Z</time>
      </trkpt>
      <trkpt lat="44.54918" lon="1.29022">
        <ele>159.936874</ele>
        <time>2020-06-07T12:32:21Z</time>
      </trkpt>
      <trkpt lat="44.54972" lon="1.29021">
        <ele>156.811157</ele>
        <time>2020-06-07T12:32:37Z</time>
      </trkpt>
      <trkpt lat="44.54979" lon="1.29026">
        <ele>157.140381</ele>
        <time>2020-06-07T12:33:45Z</time>
      </trkpt>
      <trkpt lat="44.5498" lon="1.29043">
        <ele>157.278946</ele>
        <time>2020-06-07T12:33:56Z</time>
      </trkpt>
      <trkpt lat="44.54973" lon="1.29048">
        <ele>157.0952</ele>
        <time>2020-06-07T12:39:20Z</time>
      </trkpt>
      <trkpt lat="44.54937" lon="1.2907">
        <ele>157.17157</ele>
        <time>2020-06-07T12:39:35Z</time>
      </trkpt>
      <trkpt lat="44.54904" lon="1.29099">
        <ele>159.914902</ele>
        <time>2020-06-07T12:39:45Z</time>
      </trkpt>
      <trkpt lat="44.5485" lon="1.29129">
        <ele>160.420731</ele>
        <time>2020-06-07T12:40:02Z</time>
      </trkpt>
      <trkpt lat="44.54767" lon="1.29187">
        <ele>164.379715</ele>
        <time>2020-06-07T12:40:26Z</time>
      </trkpt>
      <trkpt lat="44.54754" lon="1.29197">
        <ele>164.922852</ele>
        <time>2020-06-07T12:40:33Z</time>
      </trkpt>
      <trkpt lat="44.54728" lon="1.29205">
        <ele>164.69989</ele>
        <time>2020-06-07T12:40:46Z</time>
      </trkpt>
      <trkpt lat="44.54691" lon="1.29192">
        <ele>165.96579</ele>
        <time>2020-06-07T12:41:02Z</time>
      </trkpt>
      <trkpt lat="44.54651" lon="1.29204">
        <ele>167.105942</ele>
        <time>2020-06-07T12:41:18Z</time>
      </trkpt>
      <trkpt lat="44.54639" lon="1.29225">
        <ele>170.771255</ele>
        <time>2020-06-07T12:41:28Z</time>
      </trkpt>
      <trkpt lat="44.54629" lon="1.29229">
        <ele>171.971878</ele>
        <time>2020-06-07T12:41:35Z</time>
      </trkpt>
      <trkpt lat="44.54597" lon="1.29209">
        <ele>170.483124</ele>
        <time>2020-06-07T12:41:54Z</time>
      </trkpt>
      <trkpt lat="44.54572" lon="1.29207">
        <ele>170.69812</ele>
        <time>2020-06-07T12:42:05Z</time>
      </trkpt>
      <trkpt lat="44.54542" lon="1.29221">
        <ele>173.256256</ele>
        <time>2020-06-07T12:42:22Z</time>
      </trkpt>
      <trkpt lat="44.54527" lon="1.29234">
        <ele>175.105621</ele>
        <time>2020-06-07T12:42:34Z</time>
      </trkpt>
      <trkpt lat="44.5452" lon="1.29242">
        <ele>176.472504</ele>
        <time>2020-06-07T12:42:41Z</time>
      </trkpt>
      <trkpt lat="44.54503" lon="1.29265">
        <ele>179.388428</ele>
        <time>2020-06-07T12:42:54Z</time>
      </trkpt>
      <trkpt lat="44.54494" lon="1.29293">
        <ele>181.882568</ele>
        <time>2020-06-07T12:43:12Z</time>
      </trkpt>
      <trkpt lat="44.54482" lon="1.29315">
        <ele>182.798172</ele>
        <time>2020-06-07T12:43:25Z</time>
      </trkpt>
      <trkpt lat="44.54467" lon="1.29356">
        <ele>187.291824</ele>
        <time>2020-06-07T12:43:51Z</time>
      </trkpt>
      <trkpt lat="44.54448" lon="1.29393">
        <ele>190.368134</ele>
        <time>2020-06-07T12:44:35Z</time>
      </trkpt>
      <trkpt lat="44.54403" lon="1.29472">
        <ele>189.249161</ele>
        <time>2020-06-07T12:44:54Z</time>
      </trkpt>
      <trkpt lat="44.54358" lon="1.29576">
        <ele>191.662796</ele>
        <time>2020-06-07T12:45:13Z</time>
      </trkpt>
      <trkpt lat="44.54351" lon="1.29617">
        <ele>195.001953</ele>
        <time>2020-06-07T12:45:26Z</time>
      </trkpt>
      <trkpt lat="44.5434" lon="1.29637">
        <ele>195.147644</ele>
        <time>2020-06-07T12:45:36Z</time>
      </trkpt>
      <trkpt lat="44.54336" lon="1.29668">
        <ele>197.671921</ele>
        <time>2020-06-07T12:45:46Z</time>
      </trkpt>
      <trkpt lat="44.54322" lon="1.29706">
        <ele>200.312042</ele>
        <time>2020-06-07T12:46:00Z</time>
      </trkpt>
      <trkpt lat="44.5432" lon="1.29754">
        <ele>203.567505</ele>
        <time>2020-06-07T12:46:16Z</time>
      </trkpt>
      <trkpt lat="44.54324" lon="1.29788">
        <ele>205.411163</ele>
        <time>2020-06-07T12:46:31Z</time>
      </trkpt>
      <trkpt lat="44.54322" lon="1.29795">
        <ele>205.068146</ele>
        <time>2020-06-07T12:46:38Z</time>
      </trkpt>
      <trkpt lat="44.54328" lon="1.29804">
        <ele>205.026962</ele>
        <time>2020-06-07T12:47:00Z</time>
      </trkpt>
      <trkpt lat="44.5436" lon="1.29836">
        <ele>206.513596</ele>
        <time>2020-06-07T12:47:21Z</time>
      </trkpt>
      <trkpt lat="44.54419" lon="1.29874">
        <ele>211.785675</ele>
        <time>2020-06-07T12:48:03Z</time>
      </trkpt>
      <trkpt lat="44.54452" lon="1.29893">
        <ele>217.695343</ele>
        <time>2020-06-07T12:48:25Z</time>
      </trkpt>
      <trkpt lat="44.54465" lon="1.29909">
        <ele>219.858505</ele>
        <time>2020-06-07T12:48:36Z</time>
      </trkpt>
      <trkpt lat="44.54495" lon="1.29976">
        <ele>223.842499</ele>
        <time>2020-06-07T12:49:10Z</time>
      </trkpt>
      <trkpt lat="44.54519" lon="1.3002">
        <ele>228.17749</ele>
        <time>2020-06-07T12:49:37Z</time>
      </trkpt>
      <trkpt lat="44.54533" lon="1.30039">
        <ele>230.86438</ele>
        <time>2020-06-07T12:49:49Z</time>
      </trkpt>
      <trkpt lat="44.54572" lon="1.30104">
        <ele>236.547333</ele>
        <time>2020-06-07T12:50:22Z</time>
      </trkpt>
      <trkpt lat="44.54609" lon="1.30159">
        <ele>241.065125</ele>
        <time>2020-06-07T12:50:52Z</time>
      </trkpt>
      <trkpt lat="44.54625" lon="1.30185">
        <ele>242.264664</ele>
        <time>2020-06-07T12:51:06Z</time>
      </trkpt>
      <trkpt lat="44.54658" lon="1.30231">
        <ele>245.572266</ele>
        <time>2020-06-07T12:51:28Z</time>
      </trkpt>
      <trkpt lat="44.54684" lon="1.30264">
        <ele>247.60257</ele>
        <time>2020-06-07T12:51:46Z</time>
      </trkpt>
      <trkpt lat="44.54744" lon="1.30333">
        <ele>253.611526</ele>
        <time>2020-06-07T12:52:22Z</time>
      </trkpt>
      <trkpt lat="44.54763" lon="1.30359">
        <ele>254.282227</ele>
        <time>2020-06-07T12:52:34Z</time>
      </trkpt>
      <trkpt lat="44.54822" lon="1.30454">
        <ele>258.013</ele>
        <time>2020-06-07T12:53:12Z</time>
      </trkpt>
      <trkpt lat="44.54877" lon="1.30549">
        <ele>257.33313</ele>
        <time>2020-06-07T12:53:39Z</time>
      </trkpt>
      <trkpt lat="44.54911" lon="1.30635">
        <ele>256.032806</ele>
        <time>2020-06-07T12:53:58Z</time>
      </trkpt>
      <trkpt lat="44.5494" lon="1.30733">
        <ele>251.278503</ele>
        <time>2020-06-07T12:54:14Z</time>
      </trkpt>
      <trkpt lat="44.54966" lon="1.30761">
        <ele>247.76767</ele>
        <time>2020-06-07T12:54:19Z</time>
      </trkpt>
      <trkpt lat="44.54983" lon="1.30791">
        <ele>246.205597</ele>
        <time>2020-06-07T12:54:24Z</time>
      </trkpt>
      <trkpt lat="44.5498" lon="1.30809">
        <ele>245.488358</ele>
        <time>2020-06-07T12:54:28Z</time>
      </trkpt>
      <trkpt lat="44.54948" lon="1.30816">
        <ele>245.413055</ele>
        <time>2020-06-07T12:54:44Z</time>
      </trkpt>
      <trkpt lat="44.54891" lon="1.30828">
        <ele>245.225128</ele>
        <time>2020-06-07T12:55:03Z</time>
      </trkpt>
      <trkpt lat="44.54823" lon="1.30877">
        <ele>243.836472</ele>
        <time>2020-06-07T12:55:18Z</time>
      </trkpt>
      <trkpt lat="44.54779" lon="1.30901">
        <ele>243.013351</ele>
        <time>2020-06-07T12:55:29Z</time>
      </trkpt>
      <trkpt lat="44.54739" lon="1.30883">
        <ele>241.542496</ele>
        <time>2020-06-07T12:55:43Z</time>
      </trkpt>
      <trkpt lat="44.54729" lon="1.30887">
        <ele>240.221207</ele>
        <time>2020-06-07T12:55:53Z</time>
      </trkpt>
      <trkpt lat="44.54765" lon="1.30966">
        <ele>240.04657</ele>
        <time>2020-06-07T12:56:23Z</time>
      </trkpt>
      <trkpt lat="44.54776" lon="1.30985">
        <ele>237.466873</ele>
        <time>2020-06-07T12:56:34Z</time>
      </trkpt>
      <trkpt lat="44.5477" lon="1.31004">
        <ele>235.750626</ele>
        <time>2020-06-07T12:56:43Z</time>
      </trkpt>
      <trkpt lat="44.54749" lon="1.31037">
        <ele>233.568619</ele>
        <time>2020-06-07T12:56:51Z</time>
      </trkpt>
      <trkpt lat="44.54735" lon="1.31022">
        <ele>234.958496</ele>
        <time>2020-06-07T12:56:57Z</time>
      </trkpt>
      <trkpt lat="44.54678" lon="1.31048">
        <ele>231.705002</ele>
        <time>2020-06-07T12:57:14Z</time>
      </trkpt>
      <trkpt lat="44.54631" lon="1.31102">
        <ele>228.498657</ele>
        <time>2020-06-07T12:57:26Z</time>
      </trkpt>
      <trkpt lat="44.54621" lon="1.31147">
        <ele>226.56311</ele>
        <time>2020-06-07T12:57:33Z</time>
      </trkpt>
      <trkpt lat="44.54619" lon="1.31182">
        <ele>225.371567</ele>
        <time>2020-06-07T12:57:39Z</time>
      </trkpt>
      <trkpt lat="44.54601" lon="1.31234">
        <ele>223.231201</ele>
        <time>2020-06-07T12:57:47Z</time>
      </trkpt>
      <trkpt lat="44.54601" lon="1.3129">
        <ele>220.77887</ele>
        <time>2020-06-07T12:57:53Z</time>
      </trkpt>
      <trkpt lat="44.54603" lon="1.31366">
        <ele>216.085602</ele>
        <time>2020-06-07T12:57:59Z</time>
      </trkpt>
      <trkpt lat="44.54606" lon="1.31428">
        <ele>211.874969</ele>
        <time>2020-06-07T12:58:04Z</time>
      </trkpt>
      <trkpt lat="44.54602" lon="1.31499">
        <ele>207.07457</ele>
        <time>2020-06-07T12:58:10Z</time>
      </trkpt>
      <trkpt lat="44.54594" lon="1.31551">
        <ele>203.689331</ele>
        <time>2020-06-07T12:58:15Z</time>
      </trkpt>
      <trkpt lat="44.54555" lon="1.31675">
        <ele>196.14563</ele>
        <time>2020-06-07T12:58:26Z</time>
      </trkpt>
      <trkpt lat="44.5455" lon="1.31689">
        <ele>195.142502</ele>
        <time>2020-06-07T12:58:30Z</time>
      </trkpt>
      <trkpt lat="44.5455" lon="1.31667">
        <ele>196.177505</ele>
        <time>2020-06-07T13:05:20Z</time>
      </trkpt>
      <trkpt lat="44.54539" lon="1.31539">
        <ele>194.946899</ele>
        <time>2020-06-07T13:05:42Z</time>
      </trkpt>
      <trkpt lat="44.54516" lon="1.3148">
        <ele>188.356293</ele>
        <time>2020-06-07T13:05:51Z</time>
      </trkpt>
      <trkpt lat="44.54484" lon="1.31454">
        <ele>182.558044</ele>
        <time>2020-06-07T13:05:56Z</time>
      </trkpt>
      <trkpt lat="44.5444" lon="1.31401">
        <ele>178.610809</ele>
        <time>2020-06-07T13:06:03Z</time>
      </trkpt>
      <trkpt lat="44.54402" lon="1.31337">
        <ele>175.306686</ele>
        <time>2020-06-07T13:06:10Z</time>
      </trkpt>
      <trkpt lat="44.54388" lon="1.31298">
        <ele>173.01767</ele>
        <time>2020-06-07T13:06:15Z</time>
      </trkpt>
      <trkpt lat="44.54383" lon="1.31305">
        <ele>173.28891</ele>
        <time>2020-06-07T13:06:25Z</time>
      </trkpt>
      <trkpt lat="44.54402" lon="1.31379">
        <ele>177.327026</ele>
        <time>2020-06-07T13:07:14Z</time>
      </trkpt>
      <trkpt lat="44.54398" lon="1.31382">
        <ele>177.347626</ele>
        <time>2020-06-07T13:11:22Z</time>
      </trkpt>
      <trkpt lat="44.54382" lon="1.31376">
        <ele>178.172104</ele>
        <time>2020-06-07T13:11:33Z</time>
      </trkpt>
      <trkpt lat="44.54365" lon="1.31379">
        <ele>181.442123</ele>
        <time>2020-06-07T13:11:48Z</time>
      </trkpt>
      <trkpt lat="44.54358" lon="1.31379">
        <ele>182.693924</ele>
        <time>2020-06-07T13:12:00Z</time>
      </trkpt>
      <trkpt lat="44.54327" lon="1.31356">
        <ele>185.365524</ele>
        <time>2020-06-07T13:12:38Z</time>
      </trkpt>
      <trkpt lat="44.54312" lon="1.31336">
        <ele>185.692307</ele>
        <time>2020-06-07T13:12:48Z</time>
      </trkpt>
      <trkpt lat="44.54301" lon="1.31332">
        <ele>187.303772</ele>
        <time>2020-06-07T13:12:57Z</time>
      </trkpt>
      <trkpt lat="44.54289" lon="1.31325">
        <ele>187.491745</ele>
        <time>2020-06-07T13:13:03Z</time>
      </trkpt>
      <trkpt lat="44.5426" lon="1.31269">
        <ele>186.278107</ele>
        <time>2020-06-07T13:13:17Z</time>
      </trkpt>
      <trkpt lat="44.54238" lon="1.31251">
        <ele>185.680557</ele>
        <time>2020-06-07T13:13:33Z</time>
      </trkpt>
      <trkpt lat="44.54214" lon="1.31247">
        <ele>186.399994</ele>
        <time>2020-06-07T13:13:44Z</time>
      </trkpt>
      <trkpt lat="44.54214" lon="1.31284">
        <ele>187.691223</ele>
        <time>2020-06-07T13:14:01Z</time>
      </trkpt>
      <trkpt lat="44.54209" lon="1.31312">
        <ele>185.295197</ele>
        <time>2020-06-07T13:14:14Z</time>
      </trkpt>
      <trkpt lat="44.5421" lon="1.31331">
        <ele>182.899414</ele>
        <time>2020-06-07T13:14:25Z</time>
      </trkpt>
      <trkpt lat="44.54209" lon="1.31347">
        <ele>180.676346</ele>
        <time>2020-06-07T13:14:34Z</time>
      </trkpt>
      <trkpt lat="44.54222" lon="1.31363">
        <ele>180.921906</ele>
        <time>2020-06-07T13:17:47Z</time>
      </trkpt>
      <trkpt lat="44.54237" lon="1.31391">
        <ele>178.058319</ele>
        <time>2020-06-07T13:17:59Z</time>
      </trkpt>
      <trkpt lat="44.54256" lon="1.31406">
        <ele>181.758438</ele>
        <time>2020-06-07T13:18:16Z</time>
      </trkpt>
      <trkpt lat="44.54297" lon="1.31449">
        <ele>184.390579</ele>
        <time>2020-06-07T13:18:40Z</time>
      </trkpt>
      <trkpt lat="44.54351" lon="1.31549">
        <ele>188.54985</ele>
        <time>2020-06-07T13:19:08Z</time>
      </trkpt>
      <trkpt lat="44.54398" lon="1.31626">
        <ele>191.45015</ele>
        <time>2020-06-07T13:19:29Z</time>
      </trkpt>
      <trkpt lat="44.54431" lon="1.31683">
        <ele>190.290985</ele>
        <time>2020-06-07T13:19:42Z</time>
      </trkpt>
      <trkpt lat="44.54456" lon="1.31703">
        <ele>189.112396</ele>
        <time>2020-06-07T13:19:47Z</time>
      </trkpt>
      <trkpt lat="44.5448" lon="1.31733">
        <ele>188.192047</ele>
        <time>2020-06-07T13:19:54Z</time>
      </trkpt>
      <trkpt lat="44.54495" lon="1.31761">
        <ele>187.880234</ele>
        <time>2020-06-07T13:20:02Z</time>
      </trkpt>
      <trkpt lat="44.54535" lon="1.31851">
        <ele>196.989685</ele>
        <time>2020-06-07T13:20:43Z</time>
      </trkpt>
      <trkpt lat="44.54593" lon="1.31884">
        <ele>206.930008</ele>
        <time>2020-06-07T13:21:20Z</time>
      </trkpt>
      <trkpt lat="44.54618" lon="1.31892">
        <ele>209.472504</ele>
        <time>2020-06-07T13:21:33Z</time>
      </trkpt>
      <trkpt lat="44.54659" lon="1.31903">
        <ele>213.14035</ele>
        <time>2020-06-07T13:21:57Z</time>
      </trkpt>
      <trkpt lat="44.54689" lon="1.31905">
        <ele>215.050293</ele>
        <time>2020-06-07T13:22:09Z</time>
      </trkpt>
      <trkpt lat="44.5473" lon="1.31915">
        <ele>217.890121</ele>
        <time>2020-06-07T13:22:27Z</time>
      </trkpt>
      <trkpt lat="44.54755" lon="1.31922">
        <ele>219.197021</ele>
        <time>2020-06-07T13:22:40Z</time>
      </trkpt>
      <trkpt lat="44.54776" lon="1.31935">
        <ele>219.802765</ele>
        <time>2020-06-07T13:22:53Z</time>
      </trkpt>
      <trkpt lat="44.54836" lon="1.31904">
        <ele>220.600174</ele>
        <time>2020-06-07T13:23:17Z</time>
      </trkpt>
      <trkpt lat="44.54911" lon="1.3188">
        <ele>219.461243</ele>
        <time>2020-06-07T13:23:41Z</time>
      </trkpt>
      <trkpt lat="44.54959" lon="1.31902">
        <ele>220.756256</ele>
        <time>2020-06-07T13:23:59Z</time>
      </trkpt>
      <trkpt lat="44.55009" lon="1.31929">
        <ele>221.43956</ele>
        <time>2020-06-07T13:24:14Z</time>
      </trkpt>
      <trkpt lat="44.55057" lon="1.31965">
        <ele>222</ele>
        <time>2020-06-07T13:24:29Z</time>
      </trkpt>
      <trkpt lat="44.55138" lon="1.32002">
        <ele>220.159698</ele>
        <time>2020-06-07T13:24:47Z</time>
      </trkpt>
      <trkpt lat="44.55186" lon="1.3204">
        <ele>219.922165</ele>
        <time>2020-06-07T13:25:01Z</time>
      </trkpt>
      <trkpt lat="44.55199" lon="1.32073">
        <ele>219.847153</ele>
        <time>2020-06-07T13:25:14Z</time>
      </trkpt>
      <trkpt lat="44.55217" lon="1.32177">
        <ele>220.430466</ele>
        <time>2020-06-07T13:25:37Z</time>
      </trkpt>
      <trkpt lat="44.55214" lon="1.32231">
        <ele>220.918854</ele>
        <time>2020-06-07T13:25:50Z</time>
      </trkpt>
      <trkpt lat="44.55214" lon="1.32261">
        <ele>221.434952</ele>
        <time>2020-06-07T13:25:59Z</time>
      </trkpt>
      <trkpt lat="44.55202" lon="1.32291">
        <ele>222.497971</ele>
        <time>2020-06-07T13:26:10Z</time>
      </trkpt>
      <trkpt lat="44.5518" lon="1.32313">
        <ele>224.026016</ele>
        <time>2020-06-07T13:26:27Z</time>
      </trkpt>
      <trkpt lat="44.55144" lon="1.32366">
        <ele>225.370667</ele>
        <time>2020-06-07T13:29:16Z</time>
      </trkpt>
      <trkpt lat="44.55154" lon="1.32386">
        <ele>224.97644</ele>
        <time>2020-06-07T13:29:24Z</time>
      </trkpt>
      <trkpt lat="44.5518" lon="1.32409">
        <ele>224.661957</ele>
        <time>2020-06-07T13:29:39Z</time>
      </trkpt>
      <trkpt lat="44.55184" lon="1.32453">
        <ele>218.088058</ele>
        <time>2020-06-07T13:29:51Z</time>
      </trkpt>
      <trkpt lat="44.55198" lon="1.32482">
        <ele>211.380432</ele>
        <time>2020-06-07T13:29:58Z</time>
      </trkpt>
      <trkpt lat="44.55212" lon="1.32491">
        <ele>209.454254</ele>
        <time>2020-06-07T13:30:07Z</time>
      </trkpt>
      <trkpt lat="44.55242" lon="1.32527">
        <ele>202.471497</ele>
        <time>2020-06-07T13:33:28Z</time>
      </trkpt>
      <trkpt lat="44.55264" lon="1.32583">
        <ele>188.778305</ele>
        <time>2020-06-07T13:33:39Z</time>
      </trkpt>
      <trkpt lat="44.55275" lon="1.32604">
        <ele>183.018341</ele>
        <time>2020-06-07T13:33:44Z</time>
      </trkpt>
      <trkpt lat="44.55281" lon="1.32617">
        <ele>179.059052</ele>
        <time>2020-06-07T13:33:48Z</time>
      </trkpt>
      <trkpt lat="44.55287" lon="1.32646">
        <ele>170.869125</ele>
        <time>2020-06-07T13:33:57Z</time>
      </trkpt>
      <trkpt lat="44.55285" lon="1.32666">
        <ele>165.052643</ele>
        <time>2020-06-07T13:34:01Z</time>
      </trkpt>
      <trkpt lat="44.55289" lon="1.32681">
        <ele>161.976883</ele>
        <time>2020-06-07T13:34:05Z</time>
      </trkpt>
      <trkpt lat="44.55288" lon="1.32686">
        <ele>160.711151</ele>
        <time>2020-06-07T13:34:09Z</time>
      </trkpt>
      <trkpt lat="44.55286" lon="1.32686">
        <ele>160.676773</ele>
        <time>2020-06-07T13:34:17Z</time>
      </trkpt>
      <trkpt lat="44.5529" lon="1.32694">
        <ele>159.131393</ele>
        <time>2020-06-07T13:34:26Z</time>
      </trkpt>
      <trkpt lat="44.55294" lon="1.32707">
        <ele>156.429031</ele>
        <time>2020-06-07T13:34:31Z</time>
      </trkpt>
      <trkpt lat="44.55294" lon="1.32708">
        <ele>156.21344</ele>
        <time>2020-06-07T13:35:01Z</time>
      </trkpt>
      <trkpt lat="44.55242" lon="1.3267">
        <ele>158.243576</ele>
        <time>2020-06-07T13:35:24Z</time>
      </trkpt>
      <trkpt lat="44.55217" lon="1.32663">
        <ele>154.194733</ele>
        <time>2020-06-07T13:35:31Z</time>
      </trkpt>
      <trkpt lat="44.55169" lon="1.32671">
        <ele>148.676758</ele>
        <time>2020-06-07T13:35:39Z</time>
      </trkpt>
      <trkpt lat="44.55134" lon="1.32652">
        <ele>150.386795</ele>
        <time>2020-06-07T13:35:46Z</time>
      </trkpt>
      <trkpt lat="44.55125" lon="1.32695">
        <ele>149.441528</ele>
        <time>2020-06-07T13:36:00Z</time>
      </trkpt>
      <trkpt lat="44.55102" lon="1.32737">
        <ele>150.585556</ele>
        <time>2020-06-07T13:36:17Z</time>
      </trkpt>
      <trkpt lat="44.55085" lon="1.32744">
        <ele>151.883209</ele>
        <time>2020-06-07T13:36:30Z</time>
      </trkpt>
      <trkpt lat="44.55103" lon="1.32748">
        <ele>150.518784</ele>
        <time>2020-06-07T13:36:42Z</time>
      </trkpt>
      <trkpt lat="44.55098" lon="1.32743">
        <ele>150.843063</ele>
        <time>2020-06-07T13:36:52Z</time>
      </trkpt>
      <trkpt lat="44.55052" lon="1.32739">
        <ele>153.27179</ele>
        <time>2020-06-07T13:37:15Z</time>
      </trkpt>
      <trkpt lat="44.55015" lon="1.32752">
        <ele>154.746262</ele>
        <time>2020-06-07T13:37:30Z</time>
      </trkpt>
      <trkpt lat="44.54971" lon="1.32735">
        <ele>152.993118</ele>
        <time>2020-06-07T13:37:44Z</time>
      </trkpt>
      <trkpt lat="44.54888" lon="1.32741">
        <ele>154.05986</ele>
        <time>2020-06-07T13:38:06Z</time>
      </trkpt>
      <trkpt lat="44.54802" lon="1.32728">
        <ele>152.335083</ele>
        <time>2020-06-07T13:38:27Z</time>
      </trkpt>
      <trkpt lat="44.54678" lon="1.32705">
        <ele>156.477356</ele>
        <time>2020-06-07T13:39:00Z</time>
      </trkpt>
      <trkpt lat="44.54603" lon="1.32673">
        <ele>158.740967</ele>
        <time>2020-06-07T13:39:19Z</time>
      </trkpt>
      <trkpt lat="44.54538" lon="1.32581">
        <ele>154.840881</ele>
        <time>2020-06-07T13:39:38Z</time>
      </trkpt>
      <trkpt lat="44.54498" lon="1.32557">
        <ele>152.267441</ele>
        <time>2020-06-07T13:39:58Z</time>
      </trkpt>
      <trkpt lat="44.54441" lon="1.32603">
        <ele>153.085007</ele>
        <time>2020-06-07T13:40:25Z</time>
      </trkpt>
      <trkpt lat="44.54455" lon="1.32622">
        <ele>155.083786</ele>
        <time>2020-06-07T13:46:49Z</time>
      </trkpt>
      <trkpt lat="44.54468" lon="1.32635">
        <ele>156.675293</ele>
        <time>2020-06-07T13:47:00Z</time>
      </trkpt>
      <trkpt lat="44.54503" lon="1.32675">
        <ele>160.483597</ele>
        <time>2020-06-07T13:47:20Z</time>
      </trkpt>
      <trkpt lat="44.54525" lon="1.32777">
        <ele>163.776947</ele>
        <time>2020-06-07T13:47:45Z</time>
      </trkpt>
      <trkpt lat="44.54512" lon="1.32844">
        <ele>162.894089</ele>
        <time>2020-06-07T13:48:00Z</time>
      </trkpt>
      <trkpt lat="44.54523" lon="1.32916">
        <ele>165.872528</ele>
        <time>2020-06-07T13:48:17Z</time>
      </trkpt>
      <trkpt lat="44.54552" lon="1.32965">
        <ele>168.29422</ele>
        <time>2020-06-07T13:48:32Z</time>
      </trkpt>
      <trkpt lat="44.54554" lon="1.33051">
        <ele>169.975296</ele>
        <time>2020-06-07T13:48:53Z</time>
      </trkpt>
      <trkpt lat="44.54551" lon="1.33106">
        <ele>171.291656</ele>
        <time>2020-06-07T13:49:05Z</time>
      </trkpt>
      <trkpt lat="44.54534" lon="1.33195">
        <ele>170.781631</ele>
        <time>2020-06-07T13:49:21Z</time>
      </trkpt>
      <trkpt lat="44.54541" lon="1.33265">
        <ele>173.509399</ele>
        <time>2020-06-07T13:49:37Z</time>
      </trkpt>
      <trkpt lat="44.54536" lon="1.33412">
        <ele>175.005295</ele>
        <time>2020-06-07T13:50:08Z</time>
      </trkpt>
      <trkpt lat="44.5457" lon="1.33487">
        <ele>175.658676</ele>
        <time>2020-06-07T13:50:24Z</time>
      </trkpt>
      <trkpt lat="44.54559" lon="1.33542">
        <ele>173.943024</ele>
        <time>2020-06-07T13:50:35Z</time>
      </trkpt>
      <trkpt lat="44.54526" lon="1.3356">
        <ele>175.427338</ele>
        <time>2020-06-07T13:50:46Z</time>
      </trkpt>
      <trkpt lat="44.54528" lon="1.33583">
        <ele>175.179901</ele>
        <time>2020-06-07T13:51:07Z</time>
      </trkpt>
      <trkpt lat="44.54553" lon="1.33553">
        <ele>172.920898</ele>
        <time>2020-06-07T13:51:21Z</time>
      </trkpt>
      <trkpt lat="44.54569" lon="1.33538">
        <ele>175.717041</ele>
        <time>2020-06-07T13:51:27Z</time>
      </trkpt>
      <trkpt lat="44.54578" lon="1.33534">
        <ele>177.193375</ele>
        <time>2020-06-07T13:51:37Z</time>
      </trkpt>
      <trkpt lat="44.54571" lon="1.33553">
        <ele>176.094849</ele>
        <time>2020-06-07T13:51:52Z</time>
      </trkpt>
      <trkpt lat="44.54562" lon="1.33585">
        <ele>175.315872</ele>
        <time>2020-06-07T13:52:02Z</time>
      </trkpt>
      <trkpt lat="44.54558" lon="1.33645">
        <ele>176.209854</ele>
        <time>2020-06-07T13:52:15Z</time>
      </trkpt>
      <trkpt lat="44.54548" lon="1.33674">
        <ele>173.951553</ele>
        <time>2020-06-07T13:52:24Z</time>
      </trkpt>
      <trkpt lat="44.54543" lon="1.33717">
        <ele>174.792358</ele>
        <time>2020-06-07T13:52:34Z</time>
      </trkpt>
      <trkpt lat="44.54549" lon="1.33786">
        <ele>176.501221</ele>
        <time>2020-06-07T13:52:52Z</time>
      </trkpt>
      <trkpt lat="44.54572" lon="1.33817">
        <ele>183.787842</ele>
        <time>2020-06-07T13:53:06Z</time>
      </trkpt>
      <trkpt lat="44.54589" lon="1.33866">
        <ele>181.711807</ele>
        <time>2020-06-07T13:53:23Z</time>
      </trkpt>
      <trkpt lat="44.54592" lon="1.33945">
        <ele>182.512497</ele>
        <time>2020-06-07T13:53:44Z</time>
      </trkpt>
      <trkpt lat="44.54592" lon="1.33971">
        <ele>182.5625</ele>
        <time>2020-06-07T13:53:54Z</time>
      </trkpt>
      <trkpt lat="44.54593" lon="1.33996">
        <ele>182.632568</ele>
        <time>2020-06-07T13:54:03Z</time>
      </trkpt>
      <trkpt lat="44.5461" lon="1.34029">
        <ele>187.801498</ele>
        <time>2020-06-07T13:54:16Z</time>
      </trkpt>
      <trkpt lat="44.54634" lon="1.34056">
        <ele>192.23822</ele>
        <time>2020-06-07T13:54:32Z</time>
      </trkpt>
      <trkpt lat="44.54652" lon="1.34067">
        <ele>195.320877</ele>
        <time>2020-06-07T13:54:41Z</time>
      </trkpt>
      <trkpt lat="44.54668" lon="1.34104">
        <ele>197.996368</ele>
        <time>2020-06-07T13:54:54Z</time>
      </trkpt>
      <trkpt lat="44.54673" lon="1.34133">
        <ele>198.624756</ele>
        <time>2020-06-07T13:55:05Z</time>
      </trkpt>
      <trkpt lat="44.54712" lon="1.34213">
        <ele>200.724564</ele>
        <time>2020-06-07T13:55:28Z</time>
      </trkpt>
      <trkpt lat="44.54761" lon="1.34261">
        <ele>202.34433</ele>
        <time>2020-06-07T13:55:55Z</time>
      </trkpt>
      <trkpt lat="44.54779" lon="1.34275">
        <ele>201.794907</ele>
        <time>2020-06-07T13:56:03Z</time>
      </trkpt>
      <trkpt lat="44.54805" lon="1.34295">
        <ele>204.388397</ele>
        <time>2020-06-07T13:56:16Z</time>
      </trkpt>
      <trkpt lat="44.54808" lon="1.34292">
        <ele>205.597809</ele>
        <time>2020-06-07T13:56:25Z</time>
      </trkpt>
      <trkpt lat="44.54811" lon="1.34293">
        <ele>206.313324</ele>
        <time>2020-06-07T13:56:38Z</time>
      </trkpt>
      <trkpt lat="44.54824" lon="1.34333">
        <ele>204.445007</ele>
        <time>2020-06-07T13:57:22Z</time>
      </trkpt>
      <trkpt lat="44.54814" lon="1.34367">
        <ele>203.658997</ele>
        <time>2020-06-07T13:57:42Z</time>
      </trkpt>
      <trkpt lat="44.54796" lon="1.34376">
        <ele>207.500397</ele>
        <time>2020-06-07T14:01:25Z</time>
      </trkpt>
      <trkpt lat="44.5479" lon="1.34372">
        <ele>207.444138</ele>
        <time>2020-06-07T14:02:35Z</time>
      </trkpt>
      <trkpt lat="44.54786" lon="1.34328">
        <ele>202.121948</ele>
        <time>2020-06-07T14:02:43Z</time>
      </trkpt>
      <trkpt lat="44.54716" lon="1.34264">
        <ele>202.054001</ele>
        <time>2020-06-07T14:02:59Z</time>
      </trkpt>
      <trkpt lat="44.54704" lon="1.34248">
        <ele>200.164001</ele>
        <time>2020-06-07T14:03:06Z</time>
      </trkpt>
      <trkpt lat="44.54667" lon="1.34207">
        <ele>199.743378</ele>
        <time>2020-06-07T14:03:34Z</time>
      </trkpt>
      <trkpt lat="44.54634" lon="1.34151">
        <ele>195.956909</ele>
        <time>2020-06-07T14:03:43Z</time>
      </trkpt>
      <trkpt lat="44.54597" lon="1.34094">
        <ele>190.990051</ele>
        <time>2020-06-07T14:03:52Z</time>
      </trkpt>
      <trkpt lat="44.54563" lon="1.34085">
        <ele>192.100327</ele>
        <time>2020-06-07T14:03:59Z</time>
      </trkpt>
      <trkpt lat="44.54559" lon="1.34062">
        <ele>190.539948</ele>
        <time>2020-06-07T14:04:03Z</time>
      </trkpt>
      <trkpt lat="44.54557" lon="1.3399">
        <ele>186.449997</ele>
        <time>2020-06-07T14:04:12Z</time>
      </trkpt>
      <trkpt lat="44.54558" lon="1.33947">
        <ele>186.337494</ele>
        <time>2020-06-07T14:04:18Z</time>
      </trkpt>
      <trkpt lat="44.54562" lon="1.33904">
        <ele>183.721344</ele>
        <time>2020-06-07T14:04:24Z</time>
      </trkpt>
      <trkpt lat="44.54554" lon="1.33862">
        <ele>180.036514</ele>
        <time>2020-06-07T14:04:31Z</time>
      </trkpt>
      <trkpt lat="44.54533" lon="1.3382">
        <ele>180.14978</ele>
        <time>2020-06-07T14:04:37Z</time>
      </trkpt>
      <trkpt lat="44.54491" lon="1.33775">
        <ele>178.266556</ele>
        <time>2020-06-07T14:04:46Z</time>
      </trkpt>
      <trkpt lat="44.54464" lon="1.33778">
        <ele>179.54657</ele>
        <time>2020-06-07T14:04:52Z</time>
      </trkpt>
      <trkpt lat="44.54434" lon="1.33812">
        <ele>181.552856</ele>
        <time>2020-06-07T14:05:05Z</time>
      </trkpt>
      <trkpt lat="44.54372" lon="1.33882">
        <ele>183.661758</ele>
        <time>2020-06-07T14:05:36Z</time>
      </trkpt>
      <trkpt lat="44.54355" lon="1.33915">
        <ele>188.490967</ele>
        <time>2020-06-07T14:05:47Z</time>
      </trkpt>
      <trkpt lat="44.54328" lon="1.33935">
        <ele>186.683746</ele>
        <time>2020-06-07T14:05:56Z</time>
      </trkpt>
      <trkpt lat="44.54287" lon="1.33972">
        <ele>192.68985</ele>
        <time>2020-06-07T14:06:19Z</time>
      </trkpt>
      <trkpt lat="44.54264" lon="1.34052">
        <ele>194.981064</ele>
        <time>2020-06-07T14:06:42Z</time>
      </trkpt>
      <trkpt lat="44.54256" lon="1.34124">
        <ele>197.594131</ele>
        <time>2020-06-07T14:07:01Z</time>
      </trkpt>
      <trkpt lat="44.54237" lon="1.34176">
        <ele>197.445938</ele>
        <time>2020-06-07T14:07:19Z</time>
      </trkpt>
      <trkpt lat="44.54218" lon="1.34214">
        <ele>200.536285</ele>
        <time>2020-06-07T14:07:32Z</time>
      </trkpt>
      <trkpt lat="44.5417" lon="1.34312">
        <ele>201.307037</ele>
        <time>2020-06-07T14:08:04Z</time>
      </trkpt>
      <trkpt lat="44.54155" lon="1.34348">
        <ele>200.47644</ele>
        <time>2020-06-07T14:08:16Z</time>
      </trkpt>
      <trkpt lat="44.54153" lon="1.3438">
        <ele>200.451233</ele>
        <time>2020-06-07T14:08:25Z</time>
      </trkpt>
      <trkpt lat="44.54157" lon="1.34425">
        <ele>202.414139</ele>
        <time>2020-06-07T14:08:38Z</time>
      </trkpt>
      <trkpt lat="44.54162" lon="1.34448">
        <ele>203.757446</ele>
        <time>2020-06-07T14:08:48Z</time>
      </trkpt>
      <trkpt lat="44.54153" lon="1.34459">
        <ele>204.949478</ele>
        <time>2020-06-07T14:08:57Z</time>
      </trkpt>
      <trkpt lat="44.54142" lon="1.34487">
        <ele>208.794067</ele>
        <time>2020-06-07T14:09:13Z</time>
      </trkpt>
      <trkpt lat="44.54127" lon="1.34503">
        <ele>211.80098</ele>
        <time>2020-06-07T14:09:25Z</time>
      </trkpt>
      <trkpt lat="44.54098" lon="1.34523">
        <ele>215.046249</ele>
        <time>2020-06-07T14:09:45Z</time>
      </trkpt>
      <trkpt lat="44.54084" lon="1.34537">
        <ele>216.117508</ele>
        <time>2020-06-07T14:09:56Z</time>
      </trkpt>
      <trkpt lat="44.54072" lon="1.34574">
        <ele>217.805405</ele>
        <time>2020-06-07T14:10:12Z</time>
      </trkpt>
      <trkpt lat="44.54053" lon="1.34595">
        <ele>219.83049</ele>
        <time>2020-06-07T14:10:27Z</time>
      </trkpt>
      <trkpt lat="44.54031" lon="1.34604">
        <ele>222.605423</ele>
        <time>2020-06-07T14:10:42Z</time>
      </trkpt>
      <trkpt lat="44.54017" lon="1.34618">
        <ele>225.206879</ele>
        <time>2020-06-07T14:10:52Z</time>
      </trkpt>
      <trkpt lat="44.5401" lon="1.34641">
        <ele>227.197952</ele>
        <time>2020-06-07T14:11:03Z</time>
      </trkpt>
      <trkpt lat="44.53984" lon="1.34754">
        <ele>234.378754</ele>
        <time>2020-06-07T14:11:49Z</time>
      </trkpt>
      <trkpt lat="44.53962" lon="1.34774">
        <ele>237.522369</ele>
        <time>2020-06-07T14:12:01Z</time>
      </trkpt>
      <trkpt lat="44.53926" lon="1.34792">
        <ele>240.550262</ele>
        <time>2020-06-07T14:12:18Z</time>
      </trkpt>
      <trkpt lat="44.53889" lon="1.34812">
        <ele>242.368683</ele>
        <time>2020-06-07T14:12:38Z</time>
      </trkpt>
      <trkpt lat="44.53881" lon="1.34826">
        <ele>243.336807</ele>
        <time>2020-06-07T14:12:50Z</time>
      </trkpt>
      <trkpt lat="44.53897" lon="1.34843">
        <ele>242.812256</ele>
        <time>2020-06-07T14:13:19Z</time>
      </trkpt>
      <trkpt lat="44.53963" lon="1.34895">
        <ele>240.789093</ele>
        <time>2020-06-07T14:13:47Z</time>
      </trkpt>
      <trkpt lat="44.53983" lon="1.34938">
        <ele>241.117493</ele>
        <time>2020-06-07T14:14:02Z</time>
      </trkpt>
      <trkpt lat="44.53968" lon="1.34983">
        <ele>243.149994</ele>
        <time>2020-06-07T14:14:16Z</time>
      </trkpt>
      <trkpt lat="44.53918" lon="1.35152">
        <ele>246.237045</ele>
        <time>2020-06-07T14:14:53Z</time>
      </trkpt>
      <trkpt lat="44.5392" lon="1.35212">
        <ele>246.382507</ele>
        <time>2020-06-07T14:15:03Z</time>
      </trkpt>
      <trkpt lat="44.53911" lon="1.35305">
        <ele>249.578751</ele>
        <time>2020-06-07T14:15:25Z</time>
      </trkpt>
      <trkpt lat="44.53894" lon="1.35315">
        <ele>249.688751</ele>
        <time>2020-06-07T14:15:34Z</time>
      </trkpt>
      <trkpt lat="44.53858" lon="1.35329">
        <ele>248.961258</ele>
        <time>2020-06-07T14:15:43Z</time>
      </trkpt>
      <trkpt lat="44.53843" lon="1.35391">
        <ele>253.127502</ele>
        <time>2020-06-07T14:16:01Z</time>
      </trkpt>
      <trkpt lat="44.53836" lon="1.35405">
        <ele>253.53688</ele>
        <time>2020-06-07T14:16:07Z</time>
      </trkpt>
      <trkpt lat="44.5383" lon="1.35442">
        <ele>255.97438</ele>
        <time>2020-06-07T14:16:19Z</time>
      </trkpt>
      <trkpt lat="44.53834" lon="1.35516">
        <ele>257.466125</ele>
        <time>2020-06-07T14:16:38Z</time>
      </trkpt>
      <trkpt lat="44.53843" lon="1.35637">
        <ele>250.892548</ele>
        <time>2020-06-07T14:16:52Z</time>
      </trkpt>
      <trkpt lat="44.53832" lon="1.35716">
        <ele>249.07579</ele>
        <time>2020-06-07T14:17:01Z</time>
      </trkpt>
      <trkpt lat="44.53816" lon="1.35789">
        <ele>249.735001</ele>
        <time>2020-06-07T14:17:17Z</time>
      </trkpt>
      <trkpt lat="44.53818" lon="1.35769">
        <ele>249.684998</ele>
        <time>2020-06-07T14:17:26Z</time>
      </trkpt>
      <trkpt lat="44.53753" lon="1.35762">
        <ele>250.059998</ele>
        <time>2020-06-07T14:17:51Z</time>
      </trkpt>
      <trkpt lat="44.53692" lon="1.35748">
        <ele>251.299759</ele>
        <time>2020-06-07T14:18:10Z</time>
      </trkpt>
      <trkpt lat="44.53666" lon="1.35739">
        <ele>252.115005</ele>
        <time>2020-06-07T14:18:23Z</time>
      </trkpt>
      <trkpt lat="44.53632" lon="1.3571">
        <ele>253.610001</ele>
        <time>2020-06-07T14:18:40Z</time>
      </trkpt>
      <trkpt lat="44.53598" lon="1.35701">
        <ele>255.634995</ele>
        <time>2020-06-07T14:18:52Z</time>
      </trkpt>
      <trkpt lat="44.53527" lon="1.35705">
        <ele>260.251556</ele>
        <time>2020-06-07T14:19:14Z</time>
      </trkpt>
      <trkpt lat="44.53467" lon="1.35718">
        <ele>261.980591</ele>
        <time>2020-06-07T14:19:34Z</time>
      </trkpt>
      <trkpt lat="44.53447" lon="1.35761">
        <ele>263.428314</ele>
        <time>2020-06-07T14:19:48Z</time>
      </trkpt>
      <trkpt lat="44.53435" lon="1.35812">
        <ele>264.987762</ele>
        <time>2020-06-07T14:19:58Z</time>
      </trkpt>
      <trkpt lat="44.53432" lon="1.35853">
        <ele>265.502777</ele>
        <time>2020-06-07T14:20:07Z</time>
      </trkpt>
      <trkpt lat="44.53424" lon="1.35874">
        <ele>266.746918</ele>
        <time>2020-06-07T14:20:15Z</time>
      </trkpt>
      <trkpt lat="44.53396" lon="1.3589">
        <ele>271.483032</ele>
        <time>2020-06-07T14:20:39Z</time>
      </trkpt>
      <trkpt lat="44.53381" lon="1.35916">
        <ele>273.46698</ele>
        <time>2020-06-07T14:20:51Z</time>
      </trkpt>
      <trkpt lat="44.53367" lon="1.3594">
        <ele>275.755951</ele>
        <time>2020-06-07T14:21:03Z</time>
      </trkpt>
      <trkpt lat="44.53355" lon="1.35944">
        <ele>278.051605</ele>
        <time>2020-06-07T14:21:10Z</time>
      </trkpt>
      <trkpt lat="44.53314" lon="1.35926">
        <ele>280.618896</ele>
        <time>2020-06-07T14:21:30Z</time>
      </trkpt>
      <trkpt lat="44.53262" lon="1.35942">
        <ele>281.174561</ele>
        <time>2020-06-07T14:21:46Z</time>
      </trkpt>
      <trkpt lat="44.53213" lon="1.35973">
        <ele>280.909058</ele>
        <time>2020-06-07T14:22:08Z</time>
      </trkpt>
      <trkpt lat="44.53188" lon="1.36002">
        <ele>281.269684</ele>
        <time>2020-06-07T14:22:25Z</time>
      </trkpt>
      <trkpt lat="44.53158" lon="1.36015">
        <ele>282.600616</ele>
        <time>2020-06-07T14:24:51Z</time>
      </trkpt>
      <trkpt lat="44.53102" lon="1.3601">
        <ele>285.826294</ele>
        <time>2020-06-07T14:25:11Z</time>
      </trkpt>
      <trkpt lat="44.53058" lon="1.35991">
        <ele>289.228241</ele>
        <time>2020-06-07T14:25:29Z</time>
      </trkpt>
      <trkpt lat="44.53047" lon="1.35991">
        <ele>290.121796</ele>
        <time>2020-06-07T14:25:35Z</time>
      </trkpt>
      <trkpt lat="44.53006" lon="1.36002">
        <ele>289.596802</ele>
        <time>2020-06-07T14:25:55Z</time>
      </trkpt>
      <trkpt lat="44.52985" lon="1.35963">
        <ele>289.467499</ele>
        <time>2020-06-07T14:26:03Z</time>
      </trkpt>
      <trkpt lat="44.52956" lon="1.35921">
        <ele>288.358215</ele>
        <time>2020-06-07T14:26:13Z</time>
      </trkpt>
      <trkpt lat="44.52896" lon="1.35907">
        <ele>284.601501</ele>
        <time>2020-06-07T14:26:25Z</time>
      </trkpt>
      <trkpt lat="44.52838" lon="1.35922">
        <ele>280.546417</ele>
        <time>2020-06-07T14:26:36Z</time>
      </trkpt>
      <trkpt lat="44.52804" lon="1.35927">
        <ele>277.360077</ele>
        <time>2020-06-07T14:26:41Z</time>
      </trkpt>
      <trkpt lat="44.52764" lon="1.35943">
        <ele>271.703888</ele>
        <time>2020-06-07T14:26:47Z</time>
      </trkpt>
      <trkpt lat="44.52727" lon="1.3594">
        <ele>268.093933</ele>
        <time>2020-06-07T14:26:52Z</time>
      </trkpt>
      <trkpt lat="44.52662" lon="1.35939">
        <ele>264.686249</ele>
        <time>2020-06-07T14:27:00Z</time>
      </trkpt>
      <trkpt lat="44.5256" lon="1.35915">
        <ele>269.026459</ele>
        <time>2020-06-07T14:27:17Z</time>
      </trkpt>
      <trkpt lat="44.52515" lon="1.35893">
        <ele>271.376251</ele>
        <time>2020-06-07T14:27:28Z</time>
      </trkpt>
      <trkpt lat="44.52483" lon="1.35859">
        <ele>271.63501</ele>
        <time>2020-06-07T14:27:38Z</time>
      </trkpt>
      <trkpt lat="44.52456" lon="1.35828">
        <ele>272.327698</ele>
        <time>2020-06-07T14:27:47Z</time>
      </trkpt>
      <trkpt lat="44.52454" lon="1.35852">
        <ele>271.970917</ele>
        <time>2020-06-07T14:27:55Z</time>
      </trkpt>
      <trkpt lat="44.52452" lon="1.35958">
        <ele>274.396881</ele>
        <time>2020-06-07T14:28:19Z</time>
      </trkpt>
      <trkpt lat="44.52427" lon="1.36075">
        <ele>271.792145</ele>
        <time>2020-06-07T14:28:46Z</time>
      </trkpt>
      <trkpt lat="44.52402" lon="1.36129">
        <ele>268.845215</ele>
        <time>2020-06-07T14:28:55Z</time>
      </trkpt>
      <trkpt lat="44.524" lon="1.36179">
        <ele>268.19632</ele>
        <time>2020-06-07T14:29:02Z</time>
      </trkpt>
      <trkpt lat="44.52385" lon="1.36241">
        <ele>268.320496</ele>
        <time>2020-06-07T14:29:13Z</time>
      </trkpt>
      <trkpt lat="44.52351" lon="1.36328">
        <ele>270.968262</ele>
        <time>2020-06-07T14:29:31Z</time>
      </trkpt>
      <trkpt lat="44.52331" lon="1.36391">
        <ele>271.530457</ele>
        <time>2020-06-07T14:29:44Z</time>
      </trkpt>
      <trkpt lat="44.52307" lon="1.36472">
        <ele>271.57251</ele>
        <time>2020-06-07T14:30:03Z</time>
      </trkpt>
      <trkpt lat="44.52301" lon="1.36545">
        <ele>271.440002</ele>
        <time>2020-06-07T14:30:28Z</time>
      </trkpt>
      <trkpt lat="44.52268" lon="1.36587">
        <ele>268.497498</ele>
        <time>2020-06-07T14:30:41Z</time>
      </trkpt>
      <trkpt lat="44.52225" lon="1.36605">
        <ele>263.799133</ele>
        <time>2020-06-07T14:30:47Z</time>
      </trkpt>
      <trkpt lat="44.52198" lon="1.36625">
        <ele>259.325165</ele>
        <time>2020-06-07T14:30:51Z</time>
      </trkpt>
      <trkpt lat="44.5217" lon="1.36646">
        <ele>254.519821</ele>
        <time>2020-06-07T14:30:55Z</time>
      </trkpt>
      <trkpt lat="44.52148" lon="1.36659">
        <ele>251.740341</ele>
        <time>2020-06-07T14:30:59Z</time>
      </trkpt>
      <trkpt lat="44.52122" lon="1.36677">
        <ele>249.009781</ele>
        <time>2020-06-07T14:31:03Z</time>
      </trkpt>
      <trkpt lat="44.52085" lon="1.3669">
        <ele>245.186279</ele>
        <time>2020-06-07T14:31:09Z</time>
      </trkpt>
      <trkpt lat="44.52057" lon="1.36707">
        <ele>242.435913</ele>
        <time>2020-06-07T14:31:15Z</time>
      </trkpt>
      <trkpt lat="44.52034" lon="1.36712">
        <ele>241.04425</ele>
        <time>2020-06-07T14:31:19Z</time>
      </trkpt>
      <trkpt lat="44.52003" lon="1.36732">
        <ele>239.043259</ele>
        <time>2020-06-07T14:31:24Z</time>
      </trkpt>
      <trkpt lat="44.51939" lon="1.3675">
        <ele>231.198486</ele>
        <time>2020-06-07T14:31:34Z</time>
      </trkpt>
      <trkpt lat="44.51893" lon="1.36768">
        <ele>223.722046</ele>
        <time>2020-06-07T14:31:40Z</time>
      </trkpt>
      <trkpt lat="44.51854" lon="1.3679">
        <ele>214.723526</ele>
        <time>2020-06-07T14:31:47Z</time>
      </trkpt>
      <trkpt lat="44.51833" lon="1.36788">
        <ele>209.829025</ele>
        <time>2020-06-07T14:31:51Z</time>
      </trkpt>
      <trkpt lat="44.51822" lon="1.36775">
        <ele>207.768021</ele>
        <time>2020-06-07T14:31:55Z</time>
      </trkpt>
      <trkpt lat="44.51801" lon="1.36767">
        <ele>202.03688</ele>
        <time>2020-06-07T14:32:01Z</time>
      </trkpt>
      <trkpt lat="44.51778" lon="1.3678">
        <ele>195.305191</ele>
        <time>2020-06-07T14:32:05Z</time>
      </trkpt>
      <trkpt lat="44.51733" lon="1.36795">
        <ele>181.758743</ele>
        <time>2020-06-07T14:32:11Z</time>
      </trkpt>
      <trkpt lat="44.51696" lon="1.36802">
        <ele>170.103027</ele>
        <time>2020-06-07T14:32:16Z</time>
      </trkpt>
      <trkpt lat="44.51624" lon="1.36826">
        <ele>154.989151</ele>
        <time>2020-06-07T14:32:29Z</time>
      </trkpt>
      <trkpt lat="44.51616" lon="1.36828">
        <ele>154.063156</ele>
        <time>2020-06-07T14:32:34Z</time>
      </trkpt>
      <trkpt lat="44.51611" lon="1.36837">
        <ele>153.966797</ele>
        <time>2020-06-07T14:33:11Z</time>
      </trkpt>
      <trkpt lat="44.51593" lon="1.36849">
        <ele>153.89502</ele>
        <time>2020-06-07T14:33:25Z</time>
      </trkpt>
      <trkpt lat="44.51544" lon="1.36869">
        <ele>152.110672</ele>
        <time>2020-06-07T14:33:41Z</time>
      </trkpt>
      <trkpt lat="44.51493" lon="1.36904">
        <ele>154.772949</ele>
        <time>2020-06-07T14:34:04Z</time>
      </trkpt>
      <trkpt lat="44.51444" lon="1.36927">
        <ele>153.012436</ele>
        <time>2020-06-07T14:34:19Z</time>
      </trkpt>
      <trkpt lat="44.51386" lon="1.36967">
        <ele>152.462433</ele>
        <time>2020-06-07T14:34:33Z</time>
      </trkpt>
      <trkpt lat="44.51329" lon="1.37032">
        <ele>151.22261</ele>
        <time>2020-06-07T14:34:50Z</time>
      </trkpt>
      <trkpt lat="44.51278" lon="1.37096">
        <ele>152.975006</ele>
        <time>2020-06-07T14:35:04Z</time>
      </trkpt>
      <trkpt lat="44.51172" lon="1.37195">
        <ele>147.761963</ele>
        <time>2020-06-07T14:35:24Z</time>
      </trkpt>
      <trkpt lat="44.51114" lon="1.37265">
        <ele>141.970566</ele>
        <time>2020-06-07T14:35:35Z</time>
      </trkpt>
      <trkpt lat="44.5111" lon="1.373">
        <ele>142.537994</ele>
        <time>2020-06-07T14:35:40Z</time>
      </trkpt>
      <trkpt lat="44.51137" lon="1.37368">
        <ele>147.361526</ele>
        <time>2020-06-07T14:35:56Z</time>
      </trkpt>
      <trkpt lat="44.51165" lon="1.37412">
        <ele>151.635239</ele>
        <time>2020-06-07T14:36:10Z</time>
      </trkpt>
      <trkpt lat="44.51159" lon="1.37438">
        <ele>150.294571</ele>
        <time>2020-06-07T14:36:19Z</time>
      </trkpt>
      <trkpt lat="44.51084" lon="1.37491">
        <ele>143.021561</ele>
        <time>2020-06-07T14:36:32Z</time>
      </trkpt>
      <trkpt lat="44.51045" lon="1.37542">
        <ele>140.259995</ele>
        <time>2020-06-07T14:36:40Z</time>
      </trkpt>
      <trkpt lat="44.51053" lon="1.37587">
        <ele>141.148392</ele>
        <time>2020-06-07T14:36:45Z</time>
      </trkpt>
      <trkpt lat="44.51054" lon="1.37614">
        <ele>141.656876</ele>
        <time>2020-06-07T14:36:49Z</time>
      </trkpt>
      <trkpt lat="44.51072" lon="1.37641">
        <ele>142.78894</ele>
        <time>2020-06-07T14:37:00Z</time>
      </trkpt>
      <trkpt lat="44.51117" lon="1.37644">
        <ele>145.541397</ele>
        <time>2020-06-07T14:37:16Z</time>
      </trkpt>
    </trkseg>
  </trk>
</gpx>